M I D A S
Marine Information and Data Acquisition System
Tripno 1525 of the Zeeleeuw from 2008-07-24 07:07:13 to 2008-07-24 14:32:29
Back to CruiseResearch ActivitiesStationsMapUnderway DataData graphs

EquipmentUnitsComment
TimeDGPSUTC
LatitudeDGPSDM.mWGS84
LongitudeDGPSDM.mWGS84
TemperatureSBE03/SBE38deg celciusITS90
ConductivitySBE21S/mITS90
SalinitySBE21 Practical Salinity Units
ChlorophylAChelsea fluorimeterg/lCalibrated in Aceton
Missing or incorrect values are displayed as -999
Sea surface data collected by the RV Zeeleeuw from 2008-07-24 07:07:16 to 2008-07-24 14:45:47
                                                                                    Next 1000 lines
Time Latitude Longitude Temperature Conductivity Salinity ChlorophylA
2008-07-24 07:07:26 51°13.622 2°56.048 21.7918 0.021935 0.111658 -1.557753
2008-07-24 07:07:31 51°13.622 2°56.048 21.7741 0.021935 0.111659 -1.592577
2008-07-24 07:07:36 51°13.622 2°56.048 21.7188 0.021729 0.110634 -1.592577
2008-07-24 07:07:40 51°13.622 2°56.047 21.7108 0.021729 0.110634 -1.592577
2008-07-24 07:07:46 51°13.622 2°56.046 21.7037 0.021626 0.110123 -1.592577
2008-07-24 07:07:51 51°13.623 2°56.044 21.714 0.021729 0.110635 -1.592577
2008-07-24 07:07:56 51°13.623 2°56.041 21.7113 0.021318 0.108591 -1.557753
2008-07-24 07:08:01 51°13.624 2°56.038 21.7124 0.021523 0.109614 -1.592577
2008-07-24 07:08:06 51°13.624 2°56.035 21.7201 0.021729 0.110634 -1.592577
2008-07-24 07:08:11 51°13.625 2°56.031 21.7365 0.021729 0.110634 -1.592577
2008-07-24 07:08:16 51°13.626 2°56.027 21.7277 0.021626 0.110123 -1.592577
2008-07-24 07:08:20 51°13.627 2°56.023 21.7473 0.021626 0.110125 -1.557753
2008-07-24 07:08:26 51°13.629 2°56.018 21.7256 0.021626 0.110125 -1.592577
2008-07-24 07:08:31 51°13.63 2°56.012 21.7293 0.021626 0.110125 -1.592577
2008-07-24 07:08:36 51°13.632 2°56.007 21.7479 0.021729 0.110635 -1.557753
2008-07-24 07:08:41 51°13.634 2°56.001 21.7435 0.021729 0.110635 -1.557753
2008-07-24 07:08:46 51°13.636 2°55.995 21.7389 0.021626 0.110126 -1.592577
2008-07-24 07:08:51 51°13.638 2°55.988 21.7426 0.021523 0.109615 -1.557753
2008-07-24 07:08:56 51°13.641 2°55.982 21.7295 0.021626 0.110129 -1.592577
2008-07-24 07:09:01 51°13.643 2°55.975 21.731 0.021523 0.109618 -1.592577
2008-07-24 07:09:06 51°13.645 2°55.968 21.7292 0.021626 0.110132 -1.557753
2008-07-24 07:09:11 51°13.647 2°55.96 21.7379 0.021626 0.110132 -1.557753
2008-07-24 07:09:16 51°13.65 2°55.953 21.7259 0.021523 0.109622 -1.592577
2008-07-24 07:09:21 51°13.652 2°55.944 21.7145 0.021523 0.109622 -1.592577
2008-07-24 07:09:26 51°13.654 2°55.936 21.7335 0.021626 0.110134 -1.592577
2008-07-24 07:09:31 51°13.655 2°55.927 21.7655 0.021523 0.109625 -1.557753
2008-07-24 07:09:36 51°13.657 2°55.919 21.7729 0.021832 0.111159 -1.592577
2008-07-24 07:09:41 51°13.659 2°55.91 21.7846 0.021832 0.111159 -1.592577
2008-07-24 07:09:46 51°13.661 2°55.902 21.7735 0.021729 0.110648 -1.592577
2008-07-24 07:09:51 51°13.664 2°55.893 21.7766 0.021729 0.110648 -1.592577
2008-07-24 07:09:56 51°13.666 2°55.886 21.7869 0.021729 0.110648 -1.557753
2008-07-24 07:10:00 51°13.668 2°55.88 21.7827 0.021729 0.110648 -1.557753
2008-07-24 07:10:06 51°13.671 2°55.871 21.7774 0.021729 0.110648 -1.557753
2008-07-24 07:10:11 51°13.674 2°55.863 21.7761 0.021729 0.110648 -1.557753
2008-07-24 07:10:16 51°13.677 2°55.856 21.7743 0.021626 0.110137 -1.557753
2008-07-24 07:10:21 51°13.681 2°55.848 21.7727 0.021729 0.11065 -1.557753
2008-07-24 07:10:26 51°13.685 2°55.841 21.7725 0.021729 0.110651 -1.592577
2008-07-24 07:10:31 51°13.689 2°55.833 21.7769 0.021626 0.110142 -1.592577
2008-07-24 07:10:36 51°13.693 2°55.825 21.7743 0.021729 0.110653 -1.592577
2008-07-24 07:10:41 51°13.697 2°55.818 21.7722 0.021729 0.110653 -1.592577
2008-07-24 07:10:46 51°13.701 2°55.81 21.7704 0.021626 0.110144 -1.557753
2008-07-24 07:10:51 51°13.706 2°55.802 21.8085 0.021729 0.110656 -1.557753
2008-07-24 07:10:56 51°13.71 2°55.795 21.7903 0.021935 0.11168 -1.592577
2008-07-24 07:11:01 51°13.714 2°55.788 21.774 0.021729 0.110658 -1.592577
2008-07-24 07:11:06 51°13.718 2°55.781 21.7664 0.021729 0.110661 -1.592577
2008-07-24 07:11:11 51°13.722 2°55.773 21.7675 0.021729 0.110661 -1.592577
2008-07-24 07:11:16 51°13.726 2°55.766 21.7658 0.021729 0.110663 -1.592577
2008-07-24 07:11:20 51°13.729 2°55.759 21.7659 0.021832 0.111175 -1.592577
2008-07-24 07:11:26 51°13.734 2°55.75 21.7608 0.021729 0.110664 -1.557753
2008-07-24 07:11:31 51°13.737 2°55.742 21.7682 0.021729 0.110664 -1.592577
2008-07-24 07:11:36 51°13.741 2°55.733 21.7943 0.021935 0.111688 -1.557753
2008-07-24 07:11:41 51°13.744 2°55.725 21.7998 0.021935 0.111688 -1.557753
2008-07-24 07:11:46 51°13.746 2°55.718 21.8009 0.021935 0.11169 -1.592577
2008-07-24 07:11:51 51°13.749 2°55.711 21.7894 0.022038 0.112201 -1.592577
2008-07-24 07:11:56 51°13.751 2°55.704 21.7826 0.021935 0.111692 -1.592577
2008-07-24 07:12:01 51°13.753 2°55.699 21.7874 0.021729 0.110667 -1.557753
2008-07-24 07:12:06 51°13.754 2°55.694 21.788 0.021935 0.111692 -1.592577
2008-07-24 07:12:11 51°13.756 2°55.69 21.8208 0.021935 0.111692 -1.592577
2008-07-24 07:12:16 51°13.757 2°55.688 21.8284 0.022038 0.112205 -1.592577
2008-07-24 07:12:20 51°13.757 2°55.686 21.831 0.022141 0.11272 -1.592577
2008-07-24 07:12:25 51°13.758 2°55.686 21.8387 0.022244 0.113233 -1.557753
2008-07-24 07:12:30 51°13.759 2°55.686 21.8442 0.022449 0.114261 -1.592577
2008-07-24 07:12:35 51°13.76 2°55.687 21.8376 0.022552 0.114776 -1.592577
2008-07-24 07:12:40 51°13.761 2°55.69 21.8354 0.022552 0.114776 -1.592577
2008-07-24 07:12:44 51°13.762 2°55.692 21.7693 0.022552 0.114778 -1.557753
2008-07-24 07:12:49 51°13.764 2°55.695 21.7599 0.021832 0.111195 -1.557753
2008-07-24 07:12:54 51°13.765 2°55.698 21.7104 0.021832 0.111193 -1.592577
2008-07-24 07:12:58 51°13.766 2°55.699 21.7585 0.021729 0.11068 -1.592577
2008-07-24 07:13:03 51°13.767 2°55.7 21.7523 0.021729 0.11068 -1.592577
2008-07-24 07:13:08 51°13.768 2°55.7 21.7545 0.021729 0.11068 -1.592577
2008-07-24 07:13:13 51°13.768 2°55.7 21.693 0.021729 0.110678 -1.592577
2008-07-24 07:13:17 51°13.768 2°55.698 21.7934 0.021626 0.110166 -1.592577
2008-07-24 07:13:23 51°13.768 2°55.696 21.7842 0.021935 0.1117 -1.592577
2008-07-24 07:13:28 51°13.767 2°55.694 21.7813 0.022038 0.112211 -1.592577
2008-07-24 07:13:32 51°13.766 2°55.692 21.7566 0.021935 0.1117 -1.592577
2008-07-24 07:13:38 51°13.763 2°55.688 21.7926 0.021935 0.1117 -1.592577
2008-07-24 07:13:44 51°13.761 2°55.684 21.7978 0.022141 0.112725 -1.592577
2008-07-24 07:13:49 51°13.76 2°55.682 21.8037 0.022141 0.112725 -1.557753
2008-07-24 07:13:55 51°13.758 2°55.679 21.8166 0.022552 0.114774 -1.592577
2008-07-24 07:14:01 51°13.758 2°55.678 21.8226 0.022964 0.116828 -1.592577
2008-07-24 07:14:06 51°13.76 2°55.678 21.8377 0.023478 0.119401 -1.592577
2008-07-24 07:14:11 51°13.762 2°55.677 21.8513 0.023478 0.119401 -1.592577
2008-07-24 07:14:16 51°13.766 2°55.677 21.8517 0.023478 0.119405 -1.557753
2008-07-24 07:14:21 51°13.77 2°55.676 21.8459 0.02317 0.11787 -1.557753
2008-07-24 07:14:26 51°13.776 2°55.674 21.8389 0.022861 0.116331 -1.592577
2008-07-24 07:14:31 51°13.782 2°55.671 21.828 0.022758 0.115818 -1.557753
2008-07-24 07:14:36 51°13.789 2°55.667 21.8163 0.022552 0.114791 -1.592577
2008-07-24 07:14:41 51°13.796 2°55.663 21.7917 0.022552 0.114791 -1.592577
2008-07-24 07:14:45 51°13.802 2°55.659 21.781 0.022347 0.113763 -1.592577
2008-07-24 07:14:50 51°13.811 2°55.653 21.7761 0.022244 0.11325 -1.557753
2008-07-24 07:14:55 51°13.82 2°55.647 21.7406 0.021935 0.111711 -1.592577
2008-07-24 07:15:00 51°13.83 2°55.64 21.7209 0.021935 0.111709 -1.592577
2008-07-24 07:15:04 51°13.838 2°55.635 21.7197 0.021935 0.111708 -1.592577
2008-07-24 07:15:09 51°13.848 2°55.628 21.7187 0.021935 0.111708 -1.592577
2008-07-24 07:15:14 51°13.858 2°55.62 21.7074 0.021729 0.110685 -1.592577
2008-07-24 07:15:19 51°13.868 2°55.613 21.6859 0.021626 0.110174 -1.557753
2008-07-24 07:15:24 51°13.879 2°55.605 21.7022 0.021832 0.111196 -1.592577
2008-07-24 07:15:28 51°13.887 2°55.6 21.7403 0.021935 0.111709 -1.557753
2008-07-24 07:15:33 51°13.897 2°55.593 21.7506 0.021626 0.110177 -1.592577
2008-07-24 07:15:38 51°13.907 2°55.586 21.7489 0.021626 0.110177 -1.592577
2008-07-24 07:15:43 51°13.917 2°55.58 21.7562 0.021832 0.111201 -1.592577
2008-07-24 07:15:48 51°13.927 2°55.573 21.7579 0.021935 0.111716 -1.592577
2008-07-24 07:15:52 51°13.935 2°55.567 21.762 0.021729 0.110694 -1.592577
2008-07-24 07:15:58 51°13.947 2°55.559 21.7636 0.021832 0.111207 -1.557753
2008-07-24 07:16:03 51°13.956 2°55.552 21.7642 0.021626 0.110185 -1.592577
2008-07-24 07:16:08 51°13.965 2°55.544 21.7398 0.021626 0.110185 -1.592577
2008-07-24 07:16:12 51°13.972 2°55.539 21.7607 0.021935 0.111721 -1.592577
2008-07-24 07:16:16 51°13.98 2°55.533 21.7549 0.021832 0.111211 -1.592577
2008-07-24 07:16:23 51°13.992 2°55.523 21.7616 0.021832 0.111211 -1.592577
2008-07-24 07:16:28 51°14 2°55.515 21.7493 0.021729 0.110699 -1.592577
2008-07-24 07:16:32 51°14.007 2°55.51 21.7649 0.021729 0.110699 -1.557753
2008-07-24 07:16:37 51°14.016 2°55.503 21.7661 0.021729 0.110699 -1.557753
2008-07-24 07:16:42 51°14.024 2°55.496 21.7705 0.021832 0.111212 -1.592577
2008-07-24 07:16:48 51°14.034 2°55.488 21.7859 0.021832 0.111214 -1.557753
2008-07-24 07:16:52 51°14.041 2°55.482 21.7835 0.021832 0.111215 -1.592577
2008-07-24 07:16:57 51°14.05 2°55.476 21.7814 0.021729 0.110704 -1.592577
2008-07-24 07:17:03 51°14.06 2°55.468 21.7844 0.021935 0.111729 -1.592577
2008-07-24 07:17:08 51°14.068 2°55.461 21.7959 0.021935 0.111729 -1.592577
2008-07-24 07:17:13 51°14.077 2°55.455 21.8139 0.021935 0.11173 -1.592577
2008-07-24 07:17:17 51°14.083 2°55.449 21.8228 0.021832 0.11122 -1.592577
2008-07-24 07:17:23 51°14.094 2°55.44 21.8096 0.022244 0.113269 -1.557753
2008-07-24 07:17:28 51°14.103 2°55.433 21.8217 0.021935 0.111733 -1.592577
2008-07-24 07:17:32 51°14.111 2°55.426 21.8029 0.021935 0.111733 -1.592577
2008-07-24 07:17:37 51°14.121 2°55.417 21.8102 0.021935 0.111733 -1.592577
2008-07-24 07:17:42 51°14.132 2°55.408 21.8116 0.021935 0.111735 -1.592577
2008-07-24 07:17:48 51°14.144 2°55.396 21.8144 0.022038 0.112249 -1.592577
2008-07-24 07:17:53 51°14.155 2°55.386 21.804 0.021935 0.111738 -1.557753
2008-07-24 07:17:58 51°14.166 2°55.374 21.7997 0.021832 0.111228 -1.592577
2008-07-24 07:18:03 51°14.177 2°55.362 21.7872 0.021832 0.111228 -1.592577
2008-07-24 07:18:08 51°14.187 2°55.349 21.7764 0.021832 0.111228 -1.592577
2008-07-24 07:18:12 51°14.196 2°55.339 21.7968 0.021832 0.111228 -1.592577
2008-07-24 07:18:17 51°14.207 2°55.325 21.7896 0.021729 0.110717 -1.592577
2008-07-24 07:18:23 51°14.22 2°55.308 21.7848 0.021935 0.11174 -1.557753
2008-07-24 07:18:28 51°14.23 2°55.293 21.7959 0.021729 0.110717 -1.592577
2008-07-24 07:18:32 51°14.238 2°55.281 21.819 0.021832 0.11123 -1.592577
2008-07-24 07:18:38 51°14.25 2°55.263 21.7859 0.021832 0.11123 -1.592577
2008-07-24 07:18:43 51°14.26 2°55.247 21.8215 0.021935 0.111745 -1.592577
2008-07-24 07:18:48 51°14.27 2°55.232 21.7733 0.021729 0.11072 -1.592577
2008-07-24 07:18:52 51°14.278 2°55.219 21.7668 0.021729 0.11072 -1.557753
2008-07-24 07:18:57 51°14.288 2°55.202 21.762 0.021935 0.111742 -1.592577
2008-07-24 07:19:02 51°14.299 2°55.185 21.81 0.022038 0.112255 -1.557753
2008-07-24 07:19:08 51°14.311 2°55.164 21.7587 0.022038 0.112255 -1.557753
2008-07-24 07:19:12 51°14.319 2°55.149 21.7832 0.022038 0.112257 -1.592577
2008-07-24 07:19:17 51°14.33 2°55.131 21.7992 0.021832 0.111233 -1.557753
2008-07-24 07:19:22 51°14.339 2°55.111 21.8094 0.021935 0.111746 -1.557753
2008-07-24 07:19:28 51°14.351 2°55.087 21.7574 0.021729 0.110722 -1.557753
2008-07-24 07:19:33 51°14.361 2°55.066 21.8145 0.021626 0.110209 -1.592577
2008-07-24 07:19:37 51°14.368 2°55.049 21.8115 0.021626 0.110209 -1.592577
2008-07-24 07:19:43 51°14.379 2°55.023 21.7456 0.021935 0.111746 -1.557753
2008-07-24 07:19:47 51°14.385 2°55.005 21.7281 0.02142 0.109189 -1.592577
2008-07-24 07:19:52 51°14.394 2°54.982 21.7603 0.021832 0.111238 -1.592577
2008-07-24 07:19:57 51°14.402 2°54.959 21.7363 0.021626 0.110213 -1.592577
2008-07-24 07:20:02 51°14.41 2°54.935 21.772 0.021832 0.111235 -1.592577
2008-07-24 07:20:08 51°14.421 2°54.907 21.788 0.021832 0.111235 -1.592577
2008-07-24 07:20:13 51°14.429 2°54.883 21.7697 0.022141 0.112773 -1.557753
2008-07-24 07:20:17 51°14.435 2°54.864 21.7025 0.021523 0.109704 -1.557753
2008-07-24 07:20:23 51°14.444 2°54.834 21.717 0.021729 0.110725 -1.557753
2008-07-24 07:20:28 51°14.451 2°54.809 21.7708 0.022964 0.116883 -1.557753
2008-07-24 07:20:32 51°14.457 2°54.789 21.7714 0.022552 0.114834 -1.592577
2008-07-24 07:20:38 51°14.466 2°54.76 21.7857 0.022552 0.114834 -1.592577
2008-07-24 07:20:43 51°14.474 2°54.736 21.7682 0.023273 0.118417 -1.557753
2008-07-24 07:20:48 51°14.481 2°54.711 21.7548 0.022964 0.116881 -1.592577
2008-07-24 07:20:52 51°14.487 2°54.691 21.7621 0.022552 0.114821 -1.557753
2008-07-24 07:20:57 51°14.495 2°54.666 21.7668 0.022141 0.112767 -1.592577
2008-07-24 07:21:03 51°14.504 2°54.636 21.7399 0.022141 0.112764 -1.592577
2008-07-24 07:21:08 51°14.512 2°54.612 21.7625 0.022141 0.112764 -1.592577
2008-07-24 07:21:12 51°14.518 2°54.592 21.7489 0.022347 0.113788 -1.557753
2008-07-24 07:21:17 51°14.526 2°54.567 21.7603 0.022347 0.113788 -1.592577
2008-07-24 07:21:23 51°14.535 2°54.537 21.7905 0.021935 0.111743 -1.557753
2008-07-24 07:21:28 51°14.542 2°54.513 21.7422 0.022552 0.114826 -1.557753
2008-07-24 07:21:32 51°14.548 2°54.492 21.7715 0.022552 0.114833 -1.557753
2008-07-24 07:21:37 51°14.555 2°54.468 21.7779 0.022552 0.114833 -1.557753
2008-07-24 07:21:43 51°14.564 2°54.437 21.78 0.022449 0.114323 -1.592577
2008-07-24 07:21:47 51°14.569 2°54.417 21.7803 0.022141 0.112788 -1.592577
2008-07-24 07:21:53 51°14.577 2°54.387 21.7683 0.022038 0.112276 -1.592577
2008-07-24 07:21:57 51°14.583 2°54.366 21.7458 0.021832 0.111252 -1.592577
2008-07-24 07:22:03 51°14.591 2°54.336 21.7716 0.022038 0.112281 -1.592577
2008-07-24 07:22:07 51°14.596 2°54.316 21.7636 0.022038 0.112281 -1.592577
2008-07-24 07:22:12 51°14.602 2°54.29 21.7496 0.022244 0.113307 -1.557753
2008-07-24 07:22:17 51°14.609 2°54.265 21.7569 0.022141 0.1128 -1.592577
2008-07-24 07:22:22 51°14.616 2°54.239 21.7508 0.022038 0.112284 -1.557753
2008-07-24 07:22:28 51°14.624 2°54.209 21.7682 0.022552 0.114844 -1.557753
2008-07-24 07:22:33 51°14.631 2°54.184 21.7353 0.022244 0.113307 -1.557753
2008-07-24 07:22:37 51°14.637 2°54.164 21.7673 0.022244 0.113307 -1.557753
2008-07-24 07:22:43 51°14.646 2°54.133 21.7755 0.022347 0.113821 -1.592577
2008-07-24 07:22:48 51°14.653 2°54.108 21.7235 0.022758 0.115872 -1.592577
2008-07-24 07:22:52 51°14.659 2°54.088 21.7803 0.022449 0.114335 -1.557753
2008-07-24 07:22:58 51°14.669 2°54.059 21.7542 0.022141 0.112795 -1.557753
2008-07-24 07:23:03 51°14.677 2°54.034 21.7823 0.021935 0.111772 -1.557753
2008-07-24 07:23:08 51°14.685 2°54.01 21.7798 0.021935 0.111772 -1.557753
2008-07-24 07:23:12 51°14.691 2°53.99 21.7807 0.022655 0.115362 -1.592577
2008-07-24 07:23:17 51°14.699 2°53.966 21.7314 0.022655 0.115366 -1.557753
2008-07-24 07:23:23 51°14.709 2°53.937 21.7785 0.022964 0.116915 -1.592577
2008-07-24 07:23:28 51°14.717 2°53.913 21.7718 0.022655 0.115369 -1.557753
2008-07-24 07:23:32 51°14.724 2°53.894 21.7841 0.022655 0.115362 -1.557753
2008-07-24 07:23:37 51°14.733 2°53.871 21.767 0.022655 0.115362 -1.557753
2008-07-24 07:23:42 51°14.741 2°53.847 21.7586 0.022552 0.114844 -1.592577
2008-07-24 07:23:48 51°14.751 2°53.818 21.7729 0.022244 0.113307 -1.557753
2008-07-24 07:23:53 51°14.759 2°53.794 21.7736 0.022141 0.112793 -1.592577
2008-07-24 07:23:57 51°14.765 2°53.775 21.7324 0.02317 0.117921 -1.557753
2008-07-24 07:24:03 51°14.775 2°53.746 21.7764 0.022552 0.114846 -1.592577
2008-07-24 07:24:08 51°14.783 2°53.722 21.7423 0.022552 0.114846 -1.592577
2008-07-24 07:24:12 51°14.789 2°53.703 21.7662 0.023067 0.117423 -1.592577
2008-07-24 07:24:17 51°14.797 2°53.679 21.7408 0.022964 0.116906 -1.592577
2008-07-24 07:24:22 51°14.805 2°53.655 21.7699 0.023067 0.117422 -1.592577
2008-07-24 07:24:28 51°14.815 2°53.627 21.7617 0.023273 0.118454 -1.592577
2008-07-24 07:24:33 51°14.823 2°53.603 21.7859 0.022861 0.1164 -1.557753
2008-07-24 07:24:37 51°14.83 2°53.584 21.7673 0.022861 0.1164 -1.557753
2008-07-24 07:24:43 51°14.84 2°53.556 21.7612 0.022552 0.114864 -1.557753
2008-07-24 07:24:48 51°14.848 2°53.532 21.7522 0.022244 0.113323 -1.592577
2008-07-24 07:24:53 51°14.856 2°53.508 21.7811 0.023067 0.117428 -1.592577
2008-07-24 07:24:58 51°14.864 2°53.485 21.7667 0.022449 0.114352 -1.592577
2008-07-24 07:25:03 51°14.872 2°53.461 21.7693 0.022655 0.115376 -1.592577
2008-07-24 07:25:08 51°14.88 2°53.437 21.7779 0.022655 0.115376 -1.592577
2008-07-24 07:25:12 51°14.886 2°53.417 21.7715 0.022141 0.112813 -1.592577
2008-07-24 07:25:17 51°14.893 2°53.393 21.7898 0.022552 0.114868 -1.557753
2008-07-24 07:25:23 51°14.902 2°53.364 21.7746 0.023787 0.121042 -1.592577
2008-07-24 07:25:28 51°14.91 2°53.34 21.7735 0.02317 0.117968 -1.557753
2008-07-24 07:25:32 51°14.916 2°53.321 21.7728 0.023067 0.117449 -1.592577
2008-07-24 07:25:37 51°14.924 2°53.296 21.7788 0.023067 0.117449 -1.592577
2008-07-24 07:25:42 51°14.932 2°53.272 21.763 0.022758 0.115902 -1.592577
2008-07-24 07:25:48 51°14.941 2°53.243 21.7835 0.022038 0.112312 -1.557753
2008-07-24 07:25:52 51°14.947 2°53.224 21.7837 0.022449 0.11436 -1.592577
2008-07-24 07:25:57 51°14.955 2°53.2 21.7912 0.022758 0.115902 -1.592577
2008-07-24 07:26:03 51°14.965 2°53.171 21.7932 0.022964 0.116935 -1.592577
2008-07-24 07:26:08 51°14.973 2°53.147 21.7842 0.022964 0.116935 -1.592577
2008-07-24 07:26:13 51°14.98 2°53.123 21.7912 0.022655 0.115394 -1.592577
2008-07-24 07:26:17 51°14.987 2°53.104 21.787 0.023273 0.118487 -1.592577
2008-07-24 07:26:23 51°14.996 2°53.075 21.7656 0.022552 0.114898 -1.592577
2008-07-24 07:26:28 51°15.004 2°53.051 21.7855 0.022758 0.115926 -1.557753
2008-07-24 07:26:32 51°15.01 2°53.031 21.7937 0.022552 0.114905 -1.557753
2008-07-24 07:26:37 51°15.018 2°53.007 21.7711 0.022552 0.114905 -1.557753
2008-07-24 07:26:42 51°15.025 2°52.983 21.765 0.022038 0.112336 -1.592577
2008-07-24 07:26:48 51°15.035 2°52.954 21.8033 0.023273 0.118504 -1.557753
2008-07-24 07:26:53 51°15.043 2°52.929 21.7957 0.023787 0.121091 -1.592577
2008-07-24 07:26:57 51°15.049 2°52.91 21.7766 0.024096 0.12264 -1.557753
2008-07-24 07:27:03 51°15.059 2°52.881 21.7825 0.023067 0.117483 -1.557753
2008-07-24 07:27:08 51°15.066 2°52.857 21.758 0.023067 0.117483 -1.557753
2008-07-24 07:27:12 51°15.072 2°52.838 21.7655 0.022347 0.113879 -1.592577
2008-07-24 07:27:18 51°15.082 2°52.808 21.7698 0.023478 0.119516 -1.557753
2008-07-24 07:27:23 51°15.09 2°52.784 21.7748 0.023993 0.122081 -1.592577
2008-07-24 07:27:28 51°15.097 2°52.76 21.7827 0.023376 0.118997 -1.592577
2008-07-24 07:27:32 51°15.104 2°52.74 21.8043 0.023067 0.117452 -1.592577
2008-07-24 07:27:37 51°15.111 2°52.716 21.7835 0.023067 0.117452 -1.592577
2008-07-24 07:27:43 51°15.121 2°52.686 21.7578 0.023273 0.118492 -1.557753
2008-07-24 07:27:48 51°15.129 2°52.662 21.7871 0.023273 0.118492 -1.592577
2008-07-24 07:27:52 51°15.136 2°52.643 21.8069 0.023684 0.12057 -1.592577
2008-07-24 07:27:57 51°15.144 2°52.618 21.7991 0.02389 0.121604 -1.592577
2008-07-24 07:28:03 51°15.153 2°52.589 21.7936 0.023581 0.120062 -1.557753
2008-07-24 07:28:08 51°15.161 2°52.565 21.7957 0.023581 0.120062 -1.557753
2008-07-24 07:28:12 51°15.167 2°52.546 21.795 0.023376 0.119028 -1.592577
2008-07-24 07:28:17 51°15.175 2°52.521 21.8036 0.02317 0.117995 -1.592577
2008-07-24 07:28:23 51°15.185 2°52.493 21.7969 0.022964 0.116973 -1.592577
2008-07-24 07:28:28 51°15.193 2°52.469 21.7878 0.02317 0.118007 -1.592577
2008-07-24 07:28:33 51°15.201 2°52.444 21.7865 0.022655 0.11545 -1.592577
2008-07-24 07:28:37 51°15.208 2°52.425 21.8008 0.022655 0.11545 -1.592577
2008-07-24 07:28:43 51°15.217 2°52.396 21.805 0.023067 0.117519 -1.557753
2008-07-24 07:28:47 51°15.224 2°52.377 21.7784 0.022964 0.117034 -1.592577
2008-07-24 07:28:52 51°15.232 2°52.352 21.8061 0.023684 0.12066 -1.592577
2008-07-24 07:28:57 51°15.24 2°52.328 21.8083 0.022861 0.116556 -1.592577
2008-07-24 07:29:02 51°15.248 2°52.304 21.8069 0.022655 0.115515 -1.557753
2008-07-24 07:29:08 51°15.258 2°52.275 21.8122 0.022655 0.115515 -1.557753
2008-07-24 07:29:13 51°15.266 2°52.25 21.8061 0.023273 0.118594 -1.592577
2008-07-24 07:29:17 51°15.273 2°52.231 21.789 0.022347 0.113966 -1.557753
2008-07-24 07:29:23 51°15.282 2°52.201 21.7975 0.022758 0.11602 -1.592577
2008-07-24 07:29:28 51°15.291 2°52.177 21.7874 0.022449 0.114476 -1.557753
2008-07-24 07:29:32 51°15.297 2°52.158 21.8082 0.023067 0.117562 -1.557753
2008-07-24 07:29:38 51°15.307 2°52.128 21.7986 0.023067 0.117562 -1.557753
2008-07-24 07:29:43 51°15.315 2°52.104 21.8011 0.022655 0.115502 -1.592577
2008-07-24 07:29:48 51°15.323 2°52.08 21.7915 0.022552 0.114981 -1.557753
2008-07-24 07:29:52 51°15.33 2°52.06 21.8098 0.022141 0.112927 -1.592577
2008-07-24 07:29:57 51°15.339 2°52.036 21.7839 0.023993 0.122189 -1.592577
2008-07-24 07:30:03 51°15.349 2°52.008 21.8075 0.023376 0.119131 -1.592577
2008-07-24 07:30:08 51°15.358 2°51.984 21.79 0.023376 0.119131 -1.592577
2008-07-24 07:30:12 51°15.365 2°51.964 21.817 0.022655 0.115522 -1.557753
2008-07-24 07:30:17 51°15.373 2°51.94 21.8135 0.023376 0.119124 -1.592577
2008-07-24 07:30:22 51°15.382 2°51.916 21.7928 0.022552 0.115002 -1.557753
2008-07-24 07:30:28 51°15.391 2°51.886 21.7939 0.022655 0.11551 -1.592577
2008-07-24 07:30:33 51°15.4 2°51.862 21.7787 0.022449 0.114478 -1.592577
2008-07-24 07:30:37 51°15.406 2°51.843 21.8103 0.022449 0.114478 -1.592577
2008-07-24 07:30:43 51°15.416 2°51.814 21.8132 0.022861 0.116531 -1.557753
2008-07-24 07:30:48 51°15.425 2°51.79 21.7996 0.022861 0.116541 -1.592577
2008-07-24 07:30:52 51°15.432 2°51.77 21.7913 0.022758 0.116036 -1.557753
2008-07-24 07:30:57 51°15.44 2°51.746 21.8152 0.023787 0.121211 -1.592577
2008-07-24 07:31:02 51°15.448 2°51.722 21.8039 0.022758 0.116063 -1.592577
2008-07-24 07:31:08 51°15.458 2°51.693 21.8179 0.022758 0.116063 -1.592577
2008-07-24 07:31:12 51°15.464 2°51.673 21.8171 0.02317 0.118116 -1.592577
2008-07-24 07:31:17 51°15.473 2°51.649 21.8075 0.022449 0.114511 -1.592577
2008-07-24 07:31:23 51°15.483 2°51.62 21.82 0.022244 0.113481 -1.592577
2008-07-24 07:31:28 51°15.492 2°51.596 21.8116 0.022038 0.112457 -1.592577
2008-07-24 07:31:33 51°15.5 2°51.572 21.8198 0.022861 0.116565 -1.592577
2008-07-24 07:31:37 51°15.507 2°51.552 21.7868 0.022861 0.116565 -1.592577
2008-07-24 07:31:43 51°15.517 2°51.524 21.8117 0.022244 0.113488 -1.592577
2008-07-24 07:31:48 51°15.525 2°51.5 21.8002 0.022141 0.11297 -1.592577
2008-07-24 07:31:52 51°15.533 2°51.481 21.8259 0.022141 0.112965 -1.592577
2008-07-24 07:31:58 51°15.543 2°51.452 21.8121 0.022861 0.116572 -1.592577
2008-07-24 07:32:03 51°15.552 2°51.428 21.8166 0.022964 0.117094 -1.592577
2008-07-24 07:32:08 51°15.561 2°51.405 21.8185 0.022964 0.117094 -1.592577
2008-07-24 07:32:12 51°15.569 2°51.386 21.827 0.023067 0.117619 -1.557753
2008-07-24 07:32:18 51°15.58 2°51.357 21.8118 0.023581 0.120207 -1.557753
2008-07-24 07:32:23 51°15.589 2°51.333 21.8157 0.023479 0.119702 -1.592577
2008-07-24 07:32:28 51°15.598 2°51.31 21.8169 0.022861 0.116614 -1.592577
2008-07-24 07:32:32 51°15.606 2°51.291 21.8149 0.022038 0.112497 -1.592577
2008-07-24 07:32:37 51°15.615 2°51.267 21.8387 0.022038 0.112497 -1.592577
2008-07-24 07:32:43 51°15.625 2°51.239 21.8177 0.024816 0.126441 -1.557753
2008-07-24 07:32:48 51°15.634 2°51.215 21.8285 0.023581 0.120255 -1.592577
2008-07-24 07:32:53 51°15.642 2°51.191 21.822 0.023376 0.119193 -1.592577
2008-07-24 07:32:57 51°15.65 2°51.172 21.8222 0.023376 0.11917 -1.592577
2008-07-24 07:33:03 51°15.66 2°51.144 21.7921 0.023067 0.117619 -1.557753
2008-07-24 07:33:08 51°15.669 2°51.12 21.8295 0.023067 0.117619 -1.557753
2008-07-24 07:33:12 51°15.675 2°51.101 21.8157 0.02317 0.118125 -1.557753
2008-07-24 07:33:17 51°15.684 2°51.078 21.8344 0.023067 0.117614 -1.557753
2008-07-24 07:33:22 51°15.693 2°51.054 21.8285 0.024713 0.125879 -1.592577
2008-07-24 07:33:28 51°15.704 2°51.026 21.8176 0.024096 0.122788 -1.592577
2008-07-24 07:33:33 51°15.712 2°51.002 21.8218 0.023273 0.118676 -1.592577
2008-07-24 07:33:37 51°15.719 2°50.983 21.8268 0.023273 0.118676 -1.592577
2008-07-24 07:33:43 51°15.729 2°50.954 21.8149 0.022655 0.115593 -1.592577
2008-07-24 07:33:48 51°15.738 2°50.931 21.8506 0.023376 0.119201 -1.557753
2008-07-24 07:33:52 51°15.744 2°50.911 21.8437 0.024713 0.125933 -1.592577
2008-07-24 07:33:57 51°15.752 2°50.887 21.8309 0.025228 0.128518 -1.592577
2008-07-24 07:34:03 51°15.762 2°50.858 21.8355 0.024199 0.123311 -1.557753
2008-07-24 07:34:08 51°15.77 2°50.833 21.8461 0.024199 0.123311 -1.557753
2008-07-24 07:34:12 51°15.776 2°50.814 21.8413 0.024405 0.124347 -1.557753
2008-07-24 07:34:17 51°15.783 2°50.789 21.8445 0.024302 0.123864 -1.557753
2008-07-24 07:34:23 51°15.793 2°50.76 21.835 0.02317 0.118215 -1.592577
2008-07-24 07:34:28 51°15.801 2°50.735 21.8254 0.023067 0.117712 -1.592577
2008-07-24 07:34:32 51°15.807 2°50.716 21.8153 0.022861 0.116676 -1.592577
2008-07-24 07:34:37 51°15.815 2°50.691 21.8261 0.022861 0.116676 -1.592577
2008-07-24 07:34:43 51°15.824 2°50.661 21.8307 0.023787 0.121341 -1.592577
2008-07-24 07:34:48 51°15.832 2°50.637 21.8495 0.023376 0.119277 -1.592577
2008-07-24 07:34:52 51°15.838 2°50.617 21.8293 0.023376 0.119264 -1.592577
2008-07-24 07:34:57 51°15.846 2°50.593 21.849 0.023684 0.120799 -1.557753
2008-07-24 07:35:03 51°15.856 2°50.563 21.8337 0.02317 0.118211 -1.557753
2008-07-24 07:35:08 51°15.864 2°50.539 21.8264 0.02317 0.118211 -1.557753
2008-07-24 07:35:12 51°15.871 2°50.52 21.8264 0.02389 0.121832 -1.592577
2008-07-24 07:35:17 51°15.88 2°50.496 21.8161 0.02317 0.118258 -1.592577
2008-07-24 07:35:22 51°15.889 2°50.473 21.8428 0.022655 0.115687 -1.592577
2008-07-24 07:35:28 51°15.9 2°50.445 21.8375 0.023067 0.117759 -1.592577
2008-07-24 07:35:33 51°15.911 2°50.423 21.8319 0.022655 0.115697 -1.592577
2008-07-24 07:35:37 51°15.919 2°50.405 21.8379 0.022655 0.115697 -1.592577
2008-07-24 07:35:43 51°15.931 2°50.379 21.8449 0.022964 0.11724 -1.557753
2008-07-24 07:35:47 51°15.94 2°50.362 21.8294 0.023067 0.11774 -1.557753
2008-07-24 07:35:52 51°15.95 2°50.34 21.8307 0.022552 0.115156 -1.592577
2008-07-24 07:35:56 51°15.959 2°50.323 21.8126 0.021729 0.111045 -1.557753
2008-07-24 07:36:03 51°15.975 2°50.294 21.8249 0.022347 0.114137 -1.592577
2008-07-24 07:36:08 51°15.987 2°50.276 21.838 0.022347 0.114137 -1.592577
2008-07-24 07:36:13 51°16 2°50.257 21.8484 0.022244 0.11365 -1.592577
2008-07-24 07:36:17 51°16.01 2°50.243 21.8462 0.023376 0.119399 -1.592577
2008-07-24 07:36:23 51°16.026 2°50.222 21.8502 0.022861 0.116872 -1.592577
2008-07-24 07:36:28 51°16.039 2°50.205 21.8321 0.022964 0.117414 -1.592577
2008-07-24 07:36:32 51°16.05 2°50.192 21.839 0.023479 0.120027 -1.592577
2008-07-24 07:36:37 51°16.063 2°50.175 21.8478 0.023479 0.120027 -1.592577
2008-07-24 07:36:43 51°16.08 2°50.156 21.8418 0.023376 0.119489 -1.592577
2008-07-24 07:36:48 51°16.094 2°50.141 21.8464 0.022449 0.114819 -1.557753
2008-07-24 07:36:52 51°16.105 2°50.129 21.8489 0.024508 0.12516 -1.592577
2008-07-24 07:36:57 51°16.119 2°50.115 21.8438 0.023273 0.118948 -1.592577
2008-07-24 07:37:03 51°16.137 2°50.098 21.8483 0.023787 0.121513 -1.592577
2008-07-24 07:37:08 51°16.152 2°50.085 21.8539 0.023787 0.121513 -1.592577
2008-07-24 07:37:12 51°16.164 2°50.075 21.8522 0.024816 0.126655 -1.592577
2008-07-24 07:37:17 51°16.179 2°50.063 21.8616 0.024199 0.123519 -1.557753
2008-07-24 07:37:23 51°16.197 2°50.048 21.8583 0.023787 0.121452 -1.592577
2008-07-24 07:37:28 51°16.212 2°50.036 21.8626 0.02389 0.121972 -1.592577
2008-07-24 07:37:33 51°16.228 2°50.023 21.8502 0.024096 0.12298 -1.592577
2008-07-24 07:37:37 51°16.24 2°50.013 21.8496 0.024096 0.12298 -1.592577
2008-07-24 07:37:43 51°16.258 2°49.999 21.8505 0.023684 0.120961 -1.592577
2008-07-24 07:37:48 51°16.273 2°49.987 21.856 0.02389 0.122171 -1.592577
2008-07-24 07:37:52 51°16.285 2°49.977 21.8498 0.023273 0.119115 -1.557753
2008-07-24 07:37:58 51°16.304 2°49.962 21.8435 0.024199 0.123741 -1.592577
2008-07-24 07:38:03 51°16.319 2°49.951 21.871 0.02389 0.122153 -1.557753
2008-07-24 07:38:08 51°16.335 2°49.939 21.8739 0.02389 0.122153 -1.557753
2008-07-24 07:38:13 51°16.35 2°49.928 21.8545 0.02461 0.125771 -1.592577
2008-07-24 07:38:17 51°16.362 2°49.919 21.8695 0.023787 0.121628 -1.557753
2008-07-24 07:38:23 51°16.381 2°49.906 21.8721 0.023376 0.119539 -1.592577
2008-07-24 07:38:28 51°16.396 2°49.895 21.8686 0.023376 0.119517 -1.592577
2008-07-24 07:38:32 51°16.408 2°49.886 21.8668 0.022964 0.117431 -1.557753
2008-07-24 07:38:37 51°16.424 2°49.875 21.8663 0.022964 0.117431 -1.557753
2008-07-24 07:38:43 51°16.443 2°49.862 21.8757 0.02317 0.118448 -1.557753
2008-07-24 07:38:48 51°16.458 2°49.851 21.8702 0.023684 0.12103 -1.592577
2008-07-24 07:38:52 51°16.47 2°49.842 21.8636 0.023787 0.121563 -1.557753
2008-07-24 07:38:58 51°16.489 2°49.829 21.8652 0.02389 0.122111 -1.592577
2008-07-24 07:39:03 51°16.505 2°49.817 21.8637 0.024508 0.125253 -1.592577
2008-07-24 07:39:08 51°16.52 2°49.806 21.8658 0.024508 0.125253 -1.592577
2008-07-24 07:39:12 51°16.532 2°49.796 21.8702 0.023376 0.119583 -1.592577
2008-07-24 07:39:17 51°16.547 2°49.785 21.8758 0.024919 0.127376 -1.592577
2008-07-24 07:39:23 51°16.566 2°49.772 21.8657 0.023787 0.121673 -1.557753
2008-07-24 07:39:28 51°16.581 2°49.762 21.8629 0.023067 0.117973 -1.557753
2008-07-24 07:39:32 51°16.594 2°49.754 21.8597 0.023067 0.117926 -1.592577
2008-07-24 07:39:37 51°16.608 2°49.744 21.8672 0.023067 0.117926 -1.592577
2008-07-24 07:39:42 51°16.622 2°49.735 21.8704 0.023273 0.118938 -1.557753
2008-07-24 07:39:48 51°16.638 2°49.726 21.8726 0.02317 0.118437 -1.557753
2008-07-24 07:39:52 51°16.647 2°49.721 21.8701 0.023787 0.121569 -1.592577
2008-07-24 07:39:56 51°16.656 2°49.716 21.8722 0.024508 0.125228 -1.557753
2008-07-24 07:40:03 51°16.67 2°49.709 21.8805 0.025022 0.12792 -1.592577
2008-07-24 07:40:07 51°16.677 2°49.705 21.8928 0.025022 0.12792 -1.592577
2008-07-24 07:40:12 51°16.686 2°49.701 21.8934 0.025537 0.130558 -1.557753
2008-07-24 07:40:17 51°16.695 2°49.698 21.8839 0.026154 0.133706 -1.557753
2008-07-24 07:40:23 51°16.704 2°49.694 21.8928 0.025948 0.132671 -1.557753
2008-07-24 07:40:28 51°16.711 2°49.692 21.8907 0.026977 0.137882 -1.557753
2008-07-24 07:40:32 51°16.716 2°49.69 21.8914 0.025331 0.129544 -1.557753
2008-07-24 07:40:37 51°16.722 2°49.688 21.8813 0.025331 0.129544 -1.557753
2008-07-24 07:40:43 51°16.728 2°49.686 21.8967 0.025948 0.132645 -1.557753
2008-07-24 07:40:48 51°16.733 2°49.685 21.8949 0.024713 0.12638 -1.557753
2008-07-24 07:40:52 51°16.736 2°49.685 21.8906 0.023993 0.122729 -1.592577
2008-07-24 07:40:57 51°16.74 2°49.684 21.8945 0.024508 0.125314 -1.557753
2008-07-24 07:41:03 51°16.743 2°49.684 21.9005 0.026874 0.137325 -1.557753
2008-07-24 07:41:08 51°16.746 2°49.683 21.9047 0.026874 0.137325 -1.557753
2008-07-24 07:41:12 51°16.747 2°49.683 21.8995 0.028418 0.14528 -1.557753
2008-07-24 07:41:18 51°16.749 2°49.682 21.9232 0.027286 0.139559 -1.557753
2008-07-24 07:41:23 51°16.75 2°49.681 21.9104 0.028315 0.144836 -1.592577
2008-07-24 07:41:28 51°16.751 2°49.679 21.9094 0.027595 0.141213 -1.592577
2008-07-24 07:41:32 51°16.751 2°49.677 21.9071 0.026566 0.135997 -1.592577
2008-07-24 07:41:37 51°16.751 2°49.676 21.9028 0.026566 0.135997 -1.592577
2008-07-24 07:41:43 51°16.751 2°49.673 21.9127 0.027389 0.140197 -1.592577
2008-07-24 07:41:48 51°16.751 2°49.671 21.9081 0.027183 0.139143 -1.592577
2008-07-24 07:41:53 51°16.751 2°49.669 21.9134 0.028109 0.143843 -1.592577
2008-07-24 07:41:56 51°16.751 2°49.668 21.9217 0.028109 0.143846 -1.557753
2008-07-24 07:42:03 51°16.751 2°49.667 21.9105 0.027492 0.140707 -1.592577
2008-07-24 07:42:08 51°16.752 2°49.666 21.912 0.027492 0.140707 -1.592577
2008-07-24 07:42:12 51°16.753 2°49.666 21.8902 0.02564 0.131291 -1.592577
2008-07-24 07:42:17 51°16.755 2°49.668 21.8768 0.024199 0.12399 -1.592577
2008-07-24 07:42:22 51°16.757 2°49.67 21.8931 0.024096 0.123445 -1.592577
2008-07-24 07:42:28 51°16.759 2°49.672 21.9035 0.02564 0.131269 -1.592577
2008-07-24 07:42:32 51°16.759 2°49.674 21.917 0.025434 0.130251 -1.592577
2008-07-24 07:42:36 51°16.76 2°49.674 21.937 0.025434 0.130251 -1.592577
2008-07-24 07:42:43 51°16.761 2°49.674 21.9195 0.027595 0.141256 -1.592577
2008-07-24 07:42:48 51°16.761 2°49.674 21.934 0.026051 0.133412 -1.592577
2008-07-24 07:42:52 51°16.762 2°49.673 21.9336 0.026154 0.133956 -1.592577
2008-07-24 07:42:58 51°16.762 2°49.673 21.9367 0.026874 0.137631 -1.592577
2008-07-24 07:43:03 51°16.763 2°49.673 21.9383 0.025022 0.128227 -1.592577
2008-07-24 07:43:08 51°16.763 2°49.673 21.9328 0.025022 0.128227 -1.592577
2008-07-24 07:43:12 51°16.764 2°49.672 21.9445 0.024713 0.126646 -1.557753
2008-07-24 07:43:16 51°16.764 2°49.672 21.9298 0.024508 0.125595 -1.557753
2008-07-24 07:43:23 51°16.764 2°49.672 21.9288 0.024096 0.123507 -1.557753
2008-07-24 07:43:28 51°16.764 2°49.671 21.9218 0.024199 0.124023 -1.592577
2008-07-24 07:43:32 51°16.765 2°49.671 21.9316 0.02389 0.122458 -1.592577
2008-07-24 07:43:38 51°16.765 2°49.67 21.9403 0.02389 0.122458 -1.592577
2008-07-24 07:43:43 51°16.765 2°49.669 21.9386 0.024096 0.123496 -1.592577
2008-07-24 07:43:48 51°16.766 2°49.669 21.9345 0.023993 0.122973 -1.592577
2008-07-24 07:43:52 51°16.766 2°49.668 21.9384 0.023787 0.121932 -1.557753
2008-07-24 07:43:57 51°16.766 2°49.668 21.9387 0.023787 0.12193 -1.592577
2008-07-24 07:44:03 51°16.767 2°49.667 21.9251 0.023993 0.122964 -1.592577
2008-07-24 07:44:08 51°16.767 2°49.666 21.9293 0.023993 0.122964 -1.592577
2008-07-24 07:44:11 51°16.767 2°49.665 21.9254 0.023376 0.119846 -1.592577
2008-07-24 07:44:16 51°16.767 2°49.665 21.9445 0.02317 0.118805 -1.592577
2008-07-24 07:44:22 51°16.767 2°49.664 21.9238 0.022861 0.117253 -1.592577
2008-07-24 07:44:28 51°16.768 2°49.663 21.9312 0.023993 0.122975 -1.592577
2008-07-24 07:44:32 51°16.768 2°49.662 21.9364 0.023684 0.121415 -1.557753
2008-07-24 07:44:36 51°16.768 2°49.661 21.9375 0.023684 0.121415 -1.557753
2008-07-24 07:44:43 51°16.768 2°49.66 21.9401 0.023376 0.119857 -1.592577
2008-07-24 07:44:47 51°16.768 2°49.659 21.9298 0.023376 0.119852 -1.557753
2008-07-24 07:44:52 51°16.769 2°49.659 21.9261 0.02389 0.122449 -1.592577
2008-07-24 07:44:56 51°16.769 2°49.658 21.9336 0.023993 0.122973 -1.557753
2008-07-24 07:45:03 51°16.769 2°49.656 21.9363 0.023581 0.120894 -1.592577
2008-07-24 07:45:08 51°16.769 2°49.655 21.932 0.023581 0.120894 -1.592577
2008-07-24 07:45:12 51°16.769 2°49.654 21.9397 0.023479 0.120376 -1.592577
2008-07-24 07:45:16 51°16.769 2°49.653 21.9364 0.023273 0.11933 -1.592577
2008-07-24 07:45:23 51°16.769 2°49.651 21.9234 0.023993 0.122955 -1.557753
2008-07-24 07:45:28 51°16.769 2°49.65 21.9527 0.023993 0.122962 -1.592577
2008-07-24 07:45:32 51°16.77 2°49.649 21.9566 0.023479 0.120359 -1.557753
2008-07-24 07:45:38 51°16.77 2°49.647 21.9502 0.023479 0.120359 -1.557753
2008-07-24 07:45:43 51°16.77 2°49.646 21.9487 0.023581 0.120878 -1.557753
2008-07-24 07:45:48 51°16.77 2°49.644 21.9552 0.023684 0.121389 -1.592577
2008-07-24 07:45:52 51°16.77 2°49.643 21.9572 0.023684 0.12138 -1.592577
2008-07-24 07:45:56 51°16.77 2°49.642 21.9516 0.023684 0.121375 -1.592577
2008-07-24 07:46:03 51°16.77 2°49.64 21.9492 0.023581 0.120856 -1.557753
2008-07-24 07:46:08 51°16.77 2°49.638 21.9516 0.023581 0.120856 -1.557753
2008-07-24 07:46:12 51°16.77 2°49.637 21.9577 0.023376 0.11982 -1.557753
2008-07-24 07:46:16 51°16.77 2°49.636 21.9511 0.023067 0.118259 -1.557753
2008-07-24 07:46:23 51°16.77 2°49.633 21.945 0.02317 0.118773 -1.592577
2008-07-24 07:46:28 51°16.77 2°49.632 21.9585 0.023581 0.120851 -1.592577
2008-07-24 07:46:32 51°16.77 2°49.63 21.944 0.023684 0.121379 -1.592577
2008-07-24 07:46:36 51°16.77 2°49.629 21.9446 0.023684 0.121379 -1.592577
2008-07-24 07:46:43 51°16.77 2°49.626 21.9485 0.023067 0.118278 -1.557753
2008-07-24 07:46:48 51°16.77 2°49.625 21.9538 0.023273 0.119316 -1.592577
2008-07-24 07:46:52 51°16.77 2°49.623 21.9457 0.023684 0.121393 -1.557753
2008-07-24 07:46:57 51°16.77 2°49.622 21.9613 0.023479 0.120359 -1.592577
2008-07-24 07:47:03 51°16.77 2°49.619 21.9595 0.02317 0.118799 -1.592577
2008-07-24 07:47:08 51°16.77 2°49.617 21.9615 0.02317 0.118799 -1.592577
2008-07-24 07:47:12 51°16.77 2°49.616 21.9613 0.023067 0.118278 -1.592577
2008-07-24 07:47:16 51°16.77 2°49.614 21.9627 0.022964 0.11776 -1.557753
2008-07-24 07:47:23 51°16.77 2°49.611 21.973 0.023376 0.119839 -1.592577
2008-07-24 07:47:28 51°16.77 2°49.61 21.9585 0.023993 0.122959 -1.592577
2008-07-24 07:47:32 51°16.77 2°49.608 21.9655 0.023273 0.119337 -1.557753
2008-07-24 07:47:38 51°16.77 2°49.606 21.9633 0.023273 0.119337 -1.557753
2008-07-24 07:47:43 51°16.77 2°49.604 21.9712 0.023273 0.119341 -1.557753
2008-07-24 07:47:48 51°16.77 2°49.602 21.9711 0.023067 0.11831 -1.557753
2008-07-24 07:47:52 51°16.77 2°49.6 21.9778 0.023067 0.11831 -1.592577
2008-07-24 07:47:56 51°16.77 2°49.598 21.9836 0.022758 0.116753 -1.592577
2008-07-24 07:48:03 51°16.77 2°49.596 21.9742 0.023684 0.121429 -1.592577
2008-07-24 07:48:08 51°16.77 2°49.593 21.9596 0.023684 0.121429 -1.592577
2008-07-24 07:48:12 51°16.77 2°49.592 21.9859 0.023581 0.120917 -1.592577
2008-07-24 07:48:16 51°16.77 2°49.59 21.9668 0.023684 0.121443 -1.557753
2008-07-24 07:48:23 51°16.77 2°49.587 21.9658 0.023581 0.120923 -1.557753
2008-07-24 07:48:28 51°16.77 2°49.585 21.9826 0.023479 0.120406 -1.557753
2008-07-24 07:48:32 51°16.77 2°49.583 21.9853 0.02389 0.122478 -1.557753
2008-07-24 07:48:37 51°16.77 2°49.581 21.9778 0.02389 0.122478 -1.557753
2008-07-24 07:48:43 51°16.77 2°49.579 21.9757 0.02317 0.118845 -1.557753
2008-07-24 07:48:48 51°16.77 2°49.577 21.973 0.022861 0.117286 -1.592577
2008-07-24 07:48:52 51°16.77 2°49.575 21.9742 0.023273 0.119353 -1.592577
2008-07-24 07:48:57 51°16.77 2°49.573 21.9835 0.023684 0.121433 -1.592577
2008-07-24 07:49:02 51°16.769 2°49.571 21.9762 0.023787 0.121955 -1.557753
2008-07-24 07:49:08 51°16.769 2°49.568 21.9629 0.023787 0.121955 -1.557753
2008-07-24 07:49:13 51°16.769 2°49.566 21.9861 0.023993 0.122999 -1.557753
2008-07-24 07:49:17 51°16.769 2°49.564 21.9847 0.023993 0.123012 -1.592577
2008-07-24 07:49:23 51°16.769 2°49.562 21.9775 0.023479 0.120408 -1.592577
2008-07-24 07:49:28 51°16.769 2°49.56 21.9672 0.024199 0.124036 -1.592577
2008-07-24 07:49:33 51°16.769 2°49.558 21.9947 0.023581 0.120925 -1.592577
2008-07-24 07:49:38 51°16.769 2°49.556 21.9949 0.023581 0.120925 -1.592577
2008-07-24 07:49:43 51°16.769 2°49.554 21.9777 0.023993 0.123004 -1.557753
2008-07-24 07:49:48 51°16.768 2°49.551 21.9789 0.02317 0.118859 -1.557753
2008-07-24 07:49:53 51°16.768 2°49.55 21.9685 0.023067 0.118334 -1.592577
2008-07-24 07:49:56 51°16.768 2°49.548 21.991 0.024713 0.12666 -1.592577
2008-07-24 07:50:03 51°16.769 2°49.546 21.9901 0.023993 0.123006 -1.557753
2008-07-24 07:50:08 51°16.769 2°49.544 22.0061 0.023993 0.123006 -1.557753
2008-07-24 07:50:12 51°16.77 2°49.543 21.9977 0.02564 0.131327 -1.592577
2008-07-24 07:50:17 51°16.772 2°49.542 22.0164 0.025022 0.128202 -1.557753
2008-07-24 07:50:23 51°16.776 2°49.542 22.0219 0.027903 0.142831 -1.557753
2008-07-24 07:50:28 51°16.781 2°49.542 22.0344 0.02955 0.151249 -1.557753
2008-07-24 07:50:32 51°16.786 2°49.541 22.0579 0.027903 0.142849 -1.592577
2008-07-24 07:50:36 51°16.791 2°49.539 22.0452 0.027903 0.142849 -1.592577
2008-07-24 07:50:43 51°16.802 2°49.532 22.0104 0.025434 0.130298 -1.557753
2008-07-24 07:50:48 51°16.81 2°49.526 21.9966 0.023993 0.122992 -1.592577
2008-07-24 07:50:52 51°16.817 2°49.52 21.9997 0.022758 0.116751 -1.557753
2008-07-24 07:50:56 51°16.826 2°49.513 21.9975 0.022552 0.115695 -1.592577
2008-07-24 07:51:02 51°16.839 2°49.503 21.9804 0.022347 0.114663 -1.592577
2008-07-24 07:51:08 51°16.853 2°49.493 21.9785 0.022347 0.114663 -1.592577
2008-07-24 07:51:13 51°16.866 2°49.483 21.9999 0.022347 0.114661 -1.557753
2008-07-24 07:51:16 51°16.874 2°49.478 22.0001 0.022141 0.113639 -1.592577
2008-07-24 07:51:23 51°16.893 2°49.464 21.998 0.021935 0.112612 -1.592577
2008-07-24 07:51:28 51°16.908 2°49.454 21.9879 0.022038 0.113131 -1.592577
2008-07-24 07:51:32 51°16.919 2°49.445 21.9922 0.022141 0.113656 -1.592577
2008-07-24 07:51:37 51°16.934 2°49.434 22.0038 0.022141 0.113656 -1.592577
2008-07-24 07:51:42 51°16.948 2°49.424 21.9968 0.022141 0.113659 -1.557753
2008-07-24 07:51:48 51°16.966 2°49.41 21.9956 0.021832 0.112109 -1.557753
2008-07-24 07:51:52 51°16.978 2°49.4 21.9899 0.022141 0.113673 -1.592577
2008-07-24 07:51:56 51°16.99 2°49.39 21.9958 0.021626 0.111096 -1.557753
2008-07-24 07:52:03 51°17.01 2°49.371 21.9781 0.021832 0.11213 -1.557753
2008-07-24 07:52:08 51°17.025 2°49.359 21.9826 0.021832 0.11213 -1.557753
2008-07-24 07:52:12 51°17.037 2°49.349 21.984 0.021523 0.110585 -1.557753
2008-07-24 07:52:18 51°17.055 2°49.333 21.9799 0.021523 0.110585 -1.592577
2008-07-24 07:52:23 51°17.07 2°49.32 21.9858 0.021626 0.111104 -1.592577
2008-07-24 07:52:28 51°17.085 2°49.306 22.003 0.021935 0.112662 -1.557753
2008-07-24 07:52:32 51°17.096 2°49.295 21.9749 0.022038 0.11319 -1.592577
2008-07-24 07:52:36 51°17.108 2°49.284 21.9903 0.022038 0.11319 -1.592577
2008-07-24 07:52:43 51°17.128 2°49.264 21.979 0.02142 0.110091 -1.557753
2008-07-24 07:52:48 51°17.142 2°49.25 21.9953 0.02142 0.110088 -1.592577
2008-07-24 07:52:52 51°17.154 2°49.239 21.9896 0.021626 0.111127 -1.557753
2008-07-24 07:52:57 51°17.168 2°49.224 21.9812 0.022244 0.114228 -1.557753
2008-07-24 07:53:03 51°17.185 2°49.207 22.0066 0.021523 0.110609 -1.557753
2008-07-24 07:53:08 51°17.2 2°49.193 21.9885 0.021523 0.110609 -1.557753
2008-07-24 07:53:13 51°17.214 2°49.179 21.9988 0.021729 0.111638 -1.557753
2008-07-24 07:53:16 51°17.223 2°49.17 21.9993 0.021729 0.111637 -1.592577
2008-07-24 07:53:23 51°17.243 2°49.15 21.9873 0.021729 0.111632 -1.592577
2008-07-24 07:53:28 51°17.257 2°49.135 22.007 0.021523 0.110599 -1.592577
2008-07-24 07:53:32 51°17.269 2°49.124 22.003 0.02142 0.110081 -1.592577
2008-07-24 07:53:37 51°17.283 2°49.11 21.9976 0.02142 0.110081 -1.592577
2008-07-24 07:53:43 51°17.301 2°49.094 22.0008 0.021215 0.109051 -1.557753
2008-07-24 07:53:48 51°17.315 2°49.08 22.0039 0.021318 0.109568 -1.557753
2008-07-24 07:53:52 51°17.327 2°49.068 21.996 0.022141 0.113716 -1.592577
2008-07-24 07:53:56 51°17.339 2°49.058 22.0156 0.021832 0.112173 -1.557753
2008-07-24 07:54:03 51°17.359 2°49.038 22.007 0.022244 0.114243 -1.557753
2008-07-24 07:54:08 51°17.373 2°49.024 22.0024 0.022244 0.114243 -1.557753
2008-07-24 07:54:13 51°17.388 2°49.009 22.0091 0.021523 0.110617 -1.592577
2008-07-24 07:54:16 51°17.396 2°49.001 21.998 0.022244 0.114231 -1.557753
2008-07-24 07:54:23 51°17.416 2°48.981 21.9946 0.022347 0.114737 -1.592577
2008-07-24 07:54:28 51°17.431 2°48.966 21.9989 0.022964 0.117835 -1.557753
2008-07-24 07:54:32 51°17.442 2°48.955 22.0079 0.022552 0.115772 -1.592577
2008-07-24 07:54:38 51°17.46 2°48.939 22.02 0.022552 0.115772 -1.592577
2008-07-24 07:54:43 51°17.474 2°48.925 22.0036 0.022449 0.115251 -1.557753
2008-07-24 07:54:48 51°17.489 2°48.911 22.0025 0.022244 0.114218 -1.592577
2008-07-24 07:54:52 51°17.501 2°48.9 22.005 0.022861 0.117322 -1.557753
2008-07-24 07:54:58 51°17.518 2°48.883 22.0215 0.022449 0.115248 -1.592577
2008-07-24 07:55:03 51°17.533 2°48.869 22.0138 0.022244 0.114206 -1.592577
2008-07-24 07:55:08 51°17.547 2°48.855 22.0238 0.022244 0.114206 -1.592577
2008-07-24 07:55:12 51°17.559 2°48.844 22.0208 0.022141 0.113678 -1.592577
2008-07-24 07:55:16 51°17.571 2°48.833 22.0227 0.022038 0.113156 -1.557753
2008-07-24 07:55:23 51°17.591 2°48.813 22.0227 0.021832 0.112124 -1.592577
2008-07-24 07:55:28 51°17.606 2°48.8 22.0247 0.022758 0.116796 -1.557753
2008-07-24 07:55:33 51°17.62 2°48.786 22.0248 0.022141 0.113703 -1.557753
2008-07-24 07:55:37 51°17.632 2°48.775 22.0292 0.022141 0.113703 -1.557753
2008-07-24 07:55:43 51°17.649 2°48.759 22.0207 0.022244 0.114228 -1.557753
2008-07-24 07:55:48 51°17.664 2°48.744 22.0288 0.022038 0.113214 -1.592577
2008-07-24 07:55:53 51°17.678 2°48.731 22.0228 0.022244 0.114267 -1.557753
2008-07-24 07:55:56 51°17.687 2°48.723 22.0243 0.021832 0.112211 -1.592577
2008-07-24 07:56:03 51°17.707 2°48.703 22.0315 0.022964 0.117927 -1.557753
2008-07-24 07:56:08 51°17.722 2°48.689 22.029 0.022964 0.117927 -1.557753
2008-07-24 07:56:12 51°17.733 2°48.678 22.0372 0.022552 0.115866 -1.592577
2008-07-24 07:56:17 51°17.748 2°48.664 22.0289 0.022655 0.116377 -1.557753
2008-07-24 07:56:23 51°17.765 2°48.648 22.0301 0.022655 0.116372 -1.592577
2008-07-24 07:56:28 51°17.78 2°48.633 22.034 0.022244 0.114299 -1.557753
2008-07-24 07:56:32 51°17.792 2°48.623 22.0273 0.022552 0.115847 -1.592577
2008-07-24 07:56:37 51°17.806 2°48.609 22.0346 0.022552 0.115847 -1.592577
2008-07-24 07:56:43 51°17.824 2°48.593 22.0412 0.022449 0.115333 -1.592577
2008-07-24 07:56:48 51°17.838 2°48.579 22.0415 0.022655 0.116384 -1.557753
2008-07-24 07:56:52 51°17.85 2°48.567 22.0302 0.022038 0.113284 -1.557753
2008-07-24 07:56:58 51°17.868 2°48.551 22.021 0.022655 0.116426 -1.592577
2008-07-24 07:57:03 51°17.882 2°48.537 22.0461 0.022347 0.114891 -1.557753
2008-07-24 07:57:08 51°17.897 2°48.523 22.0485 0.022347 0.114891 -1.557753
2008-07-24 07:57:12 51°17.909 2°48.512 22.029 0.022449 0.115404 -1.592577
2008-07-24 07:57:16 51°17.92 2°48.501 22.023 0.021729 0.111759 -1.557753
2008-07-24 07:57:23 51°17.941 2°48.481 22.0402 0.022758 0.11692 -1.592577
2008-07-24 07:57:28 51°17.956 2°48.467 22.0302 0.022552 0.115885 -1.557753
2008-07-24 07:57:32 51°17.967 2°48.456 22.0232 0.022141 0.113815 -1.557753
2008-07-24 07:57:37 51°17.982 2°48.442 22.0438 0.022141 0.113815 -1.557753
2008-07-24 07:57:43 51°18 2°48.425 22.0428 0.024199 0.124218 -1.557753
2008-07-24 07:57:48 51°18.015 2°48.411 22.0452 0.022964 0.117955 -1.557753
2008-07-24 07:57:52 51°18.026 2°48.4 22.0472 0.02317 0.118953 -1.557753
2008-07-24 07:57:56 51°18.038 2°48.389 22.044 0.022655 0.116333 -1.557753
2008-07-24 07:58:03 51°18.058 2°48.369 22.0291 0.022861 0.117378 -1.592577
2008-07-24 07:58:08 51°18.073 2°48.355 22.0454 0.022861 0.117378 -1.592577
2008-07-24 07:58:13 51°18.088 2°48.342 22.0464 0.023067 0.118434 -1.592577
2008-07-24 07:58:16 51°18.097 2°48.334 22.0511 0.022552 0.115849 -1.557753
2008-07-24 07:58:23 51°18.117 2°48.314 22.0551 0.022141 0.113788 -1.592577
2008-07-24 07:58:28 51°18.132 2°48.3 22.0503 0.022244 0.114317 -1.557753
2008-07-24 07:58:32 51°18.144 2°48.289 22.0435 0.022038 0.11331 -1.592577
2008-07-24 07:58:36 51°18.156 2°48.278 22.0396 0.022038 0.11331 -1.592577
2008-07-24 07:58:43 51°18.176 2°48.259 22.056 0.022038 0.11334 -1.592577
2008-07-24 07:58:48 51°18.191 2°48.245 22.0536 0.022552 0.11595 -1.592577
2008-07-24 07:58:52 51°18.203 2°48.234 22.0453 0.022244 0.1144 -1.557753
2008-07-24 07:58:56 51°18.215 2°48.223 22.0527 0.022244 0.114413 -1.557753
2008-07-24 07:59:03 51°18.236 2°48.204 22.04 0.022038 0.113382 -1.557753
2008-07-24 07:59:07 51°18.247 2°48.193 22.06 0.022038 0.113382 -1.557753
2008-07-24 07:59:12 51°18.262 2°48.179 22.0513 0.022244 0.114418 -1.592577
2008-07-24 07:59:18 51°18.28 2°48.162 22.0632 0.022141 0.113915 -1.557753
2008-07-24 07:59:23 51°18.294 2°48.148 22.0508 0.022449 0.115482 -1.557753
2008-07-24 07:59:28 51°18.309 2°48.134 22.0611 0.021935 0.11289 -1.592577
2008-07-24 07:59:32 51°18.321 2°48.123 22.0626 0.021832 0.112366 -1.557753
2008-07-24 07:59:36 51°18.333 2°48.112 22.0515 0.021832 0.112366 -1.557753
2008-07-24 07:59:43 51°18.353 2°48.092 22.0617 0.021832 0.112354 -1.592577
2008-07-24 07:59:48 51°18.368 2°48.078 22.0647 0.022038 0.113385 -1.557753
2008-07-24 07:59:52 51°18.38 2°48.067 22.0623 0.021729 0.11183 -1.557753
2008-07-24 07:59:56 51°18.392 2°48.056 22.064 0.022038 0.113382 -1.592577
2008-07-24 08:00:03 51°18.412 2°48.036 22.074 0.023273 0.119637 -1.592577
2008-07-24 08:00:08 51°18.427 2°48.023 22.0586 0.023273 0.119637 -1.592577
2008-07-24 08:00:12 51°18.439 2°48.011 22.0686 0.022347 0.114959 -1.557753
2008-07-24 08:00:17 51°18.454 2°47.997 22.0711 0.022347 0.11495 -1.557753
2008-07-24 08:00:23 51°18.472 2°47.98 22.0644 0.022655 0.116505 -1.592577
2008-07-24 08:00:28 51°18.486 2°47.966 22.0722 0.022244 0.114437 -1.592577
2008-07-24 08:00:32 51°18.498 2°47.955 22.0658 0.022038 0.113395 -1.592577
2008-07-24 08:00:38 51°18.516 2°47.938 22.0703 0.022038 0.113395 -1.592577
2008-07-24 08:00:43 51°18.531 2°47.924 22.0579 0.022038 0.113389 -1.557753
2008-07-24 08:00:48 51°18.546 2°47.909 22.0709 0.021935 0.112862 -1.592577
2008-07-24 08:00:53 51°18.56 2°47.895 22.0761 0.022141 0.113897 -1.592577
2008-07-24 08:00:56 51°18.569 2°47.887 22.0715 0.022552 0.115976 -1.592577
2008-07-24 08:01:03 51°18.59 2°47.867 22.0626 0.021935 0.112874 -1.592577
2008-07-24 08:01:08 51°18.605 2°47.853 22.0508 0.021935 0.112874 -1.592577
2008-07-24 08:01:12 51°18.617 2°47.842 22.0618 0.022244 0.114425 -1.557753
2008-07-24 08:01:18 51°18.635 2°47.826 22.0733 0.022244 0.114425 -1.592577
2008-07-24 08:01:23 51°18.65 2°47.813 22.0769 0.021935 0.112872 -1.557753
2008-07-24 08:01:28 51°18.665 2°47.8 22.0744 0.022038 0.113394 -1.557753
2008-07-24 08:01:32 51°18.677 2°47.79 22.082 0.022038 0.1134 -1.557753
2008-07-24 08:01:38 51°18.695 2°47.774 22.073 0.022038 0.1134 -1.557753
2008-07-24 08:01:43 51°18.71 2°47.761 22.0827 0.021523 0.110816 -1.557753
2008-07-24 08:01:48 51°18.726 2°47.748 22.0664 0.022244 0.114464 -1.557753
2008-07-24 08:01:52 51°18.738 2°47.738 22.0773 0.021935 0.112922 -1.557753
2008-07-24 08:01:58 51°18.755 2°47.722 22.0858 0.021832 0.112402 -1.592577
2008-07-24 08:02:03 51°18.77 2°47.709 22.0851 0.022655 0.11655 -1.592577
2008-07-24 08:02:08 51°18.785 2°47.695 22.0798 0.022655 0.11655 -1.592577
2008-07-24 08:02:12 51°18.797 2°47.684 22.0925 0.022758 0.117076 -1.592577
2008-07-24 08:02:16 51°18.809 2°47.673 22.0798 0.022758 0.117074 -1.557753
2008-07-24 08:02:23 51°18.83 2°47.654 22.0786 0.023273 0.119669 -1.557753
2008-07-24 08:02:28 51°18.845 2°47.64 22.0948 0.022552 0.116022 -1.592577
2008-07-24 08:02:32 51°18.856 2°47.628 22.0752 0.023479 0.120685 -1.557753
2008-07-24 08:02:36 51°18.868 2°47.617 22.089 0.023479 0.120685 -1.557753
2008-07-24 08:02:43 51°18.888 2°47.597 22.0773 0.022861 0.117569 -1.592577
2008-07-24 08:02:48 51°18.903 2°47.583 22.084 0.022038 0.113409 -1.557753
2008-07-24 08:02:52 51°18.915 2°47.571 22.0797 0.022038 0.113404 -1.592577
2008-07-24 08:02:58 51°18.932 2°47.554 22.0898 0.022244 0.114442 -1.557753
2008-07-24 08:03:03 51°18.947 2°47.54 22.0974 0.022655 0.116525 -1.592577
2008-07-24 08:03:08 51°18.962 2°47.526 22.0887 0.022655 0.116525 -1.592577
2008-07-24 08:03:13 51°18.977 2°47.513 22.0985 0.022244 0.114467 -1.557753
2008-07-24 08:03:18 51°18.991 2°47.498 22.0956 0.022347 0.114988 -1.592577
2008-07-24 08:03:23 51°19.006 2°47.484 22.0951 0.022449 0.115508 -1.592577
2008-07-24 08:03:28 51°19.021 2°47.469 22.0859 0.022141 0.113952 -1.592577
2008-07-24 08:03:32 51°19.032 2°47.458 22.0853 0.022449 0.115508 -1.557753
2008-07-24 08:03:38 51°19.05 2°47.44 22.1009 0.022449 0.115508 -1.557753
2008-07-24 08:03:43 51°19.065 2°47.426 22.0934 0.021729 0.111881 -1.557753
2008-07-24 08:03:48 51°19.08 2°47.411 22.0965 0.022347 0.114991 -1.557753
2008-07-24 08:03:52 51°19.091 2°47.399 22.086 0.021935 0.112922 -1.592577
2008-07-24 08:03:58 51°19.109 2°47.382 22.1045 0.022861 0.1176 -1.592577
2008-07-24 08:04:03 51°19.124 2°47.367 22.1027 0.022964 0.118137 -1.592577
2008-07-24 08:04:08 51°19.138 2°47.353 22.0945 0.022964 0.118137 -1.592577
2008-07-24 08:04:13 51°19.153 2°47.339 22.1029 0.022244 0.114506 -1.592577
2008-07-24 08:04:17 51°19.165 2°47.327 22.1005 0.021935 0.112935 -1.592577
2008-07-24 08:04:23 51°19.183 2°47.31 22.0958 0.022038 0.113449 -1.592577
2008-07-24 08:04:28 51°19.197 2°47.295 22.1053 0.022244 0.114481 -1.557753
2008-07-24 08:04:32 51°19.209 2°47.284 22.103 0.021729 0.111889 -1.557753
2008-07-24 08:04:36 51°19.221 2°47.273 22.1057 0.021729 0.111889 -1.557753
2008-07-24 08:04:43 51°19.242 2°47.253 22.0939 0.021832 0.11241 -1.557753
2008-07-24 08:04:48 51°19.257 2°47.238 22.0993 0.022038 0.113454 -1.592577
2008-07-24 08:04:53 51°19.272 2°47.224 22.1113 0.022244 0.114516 -1.557753
2008-07-24 08:04:57 51°19.284 2°47.212 22.0963 0.022552 0.116091 -1.592577
2008-07-24 08:05:03 51°19.301 2°47.195 22.1044 0.022244 0.114535 -1.592577
2008-07-24 08:05:08 51°19.316 2°47.181 22.1127 0.022244 0.114535 -1.592577
2008-07-24 08:05:13 51°19.331 2°47.166 22.092 0.022038 0.113497 -1.592577
2008-07-24 08:05:17 51°19.343 2°47.155 22.104 0.022244 0.11454 -1.557753
2008-07-24 08:05:23 51°19.361 2°47.138 22.1104 0.022141 0.114034 -1.592577
2008-07-24 08:05:28 51°19.376 2°47.124 22.1134 0.022038 0.113527 -1.557753
2008-07-24 08:05:33 51°19.39 2°47.11 22.1033 0.022861 0.117707 -1.557753
2008-07-24 08:05:37 51°19.402 2°47.099 22.1089 0.022861 0.117707 -1.557753
2008-07-24 08:05:43 51°19.421 2°47.082 22.1082 0.021935 0.113025 -1.557753
2008-07-24 08:05:48 51°19.435 2°47.068 22.1113 0.02317 0.119255 -1.592577
2008-07-24 08:05:52 51°19.448 2°47.058 22.1136 0.022758 0.117178 -1.592577
2008-07-24 08:05:58 51°19.465 2°47.042 22.1112 0.022655 0.116665 -1.557753
2008-07-24 08:06:03 51°19.481 2°47.029 22.116 0.022552 0.116135 -1.592577
2008-07-24 08:06:08 51°19.495 2°47.015 22.1067 0.022552 0.116135 -1.592577
2008-07-24 08:06:12 51°19.507 2°47.005 22.1228 0.022347 0.115088 -1.592577
2008-07-24 08:06:16 51°19.519 2°46.994 22.1136 0.02317 0.119252 -1.557753
2008-07-24 08:06:23 51°19.54 2°46.975 22.1238 0.022552 0.11613 -1.592577
2008-07-24 08:06:28 51°19.554 2°46.962 22.125 0.023273 0.119781 -1.557753
2008-07-24 08:06:33 51°19.569 2°46.948 22.1069 0.023787 0.122398 -1.592577
2008-07-24 08:06:37 51°19.581 2°46.937 22.1284 0.023787 0.122398 -1.592577
2008-07-24 08:06:43 51°19.599 2°46.922 22.1262 0.023067 0.11874 -1.592577
2008-07-24 08:06:48 51°19.613 2°46.908 22.1192 0.022758 0.117166 -1.557753
2008-07-24 08:06:53 51°19.628 2°46.895 22.1269 0.022964 0.118201 -1.557753
2008-07-24 08:06:57 51°19.64 2°46.884 22.1334 0.022552 0.116123 -1.592577
2008-07-24 08:07:03 51°19.657 2°46.868 22.1223 0.022244 0.114575 -1.592577
2008-07-24 08:07:08 51°19.672 2°46.854 22.1108 0.022244 0.114575 -1.592577
2008-07-24 08:07:13 51°19.687 2°46.841 22.1243 0.022449 0.115621 -1.557753
2008-07-24 08:07:17 51°19.699 2°46.83 22.1327 0.022552 0.116154 -1.557753
2008-07-24 08:07:23 51°19.716 2°46.814 22.1304 0.023376 0.120339 -1.592577
2008-07-24 08:07:28 51°19.731 2°46.801 22.1232 0.023067 0.118781 -1.592577
2008-07-24 08:07:32 51°19.743 2°46.79 22.1116 0.022552 0.116173 -1.557753
2008-07-24 08:07:37 51°19.758 2°46.776 22.127 0.022552 0.116173 -1.557753
2008-07-24 08:07:43 51°19.776 2°46.76 22.1271 0.02317 0.119296 -1.592577
2008-07-24 08:07:48 51°19.79 2°46.746 22.1228 0.023273 0.119826 -1.592577
2008-07-24 08:07:53 51°19.805 2°46.733 22.1184 0.022449 0.115674 -1.557753
2008-07-24 08:07:57 51°19.817 2°46.722 22.1216 0.02317 0.119321 -1.592577
2008-07-24 08:08:03 51°19.835 2°46.706 22.1398 0.022861 0.117766 -1.557753
2008-07-24 08:08:08 51°19.85 2°46.694 22.1454 0.022861 0.117766 -1.557753
2008-07-24 08:08:12 51°19.863 2°46.683 22.1225 0.02461 0.12664 -1.557753
2008-07-24 08:08:18 51°19.881 2°46.668 22.1438 0.024096 0.124035 -1.592577
2008-07-24 08:08:23 51°19.896 2°46.655 22.14 0.023479 0.120889 -1.592577
2008-07-24 08:08:28 51°19.911 2°46.642 22.1484 0.022758 0.117218 -1.557753
2008-07-24 08:08:32 51°19.923 2°46.631 22.1306 0.023787 0.122422 -1.592577
2008-07-24 08:08:38 51°19.941 2°46.616 22.1337 0.023787 0.122422 -1.592577
2008-07-24 08:08:43 51°19.956 2°46.602 22.1371 0.02389 0.122984 -1.557753
2008-07-24 08:08:48 51°19.971 2°46.589 22.1388 0.023067 0.118866 -1.592577
2008-07-24 08:08:52 51°19.983 2°46.578 22.1251 0.023993 0.123563 -1.557753
2008-07-24 08:08:56 51°19.995 2°46.567 22.1379 0.023479 0.120938 -1.557753
2008-07-24 08:09:03 51°20.016 2°46.547 22.1329 0.023787 0.122488 -1.592577
2008-07-24 08:09:08 51°20.031 2°46.533 22.1276 0.023787 0.122488 -1.592577
2008-07-24 08:09:13 51°20.045 2°46.519 22.1408 0.022552 0.116232 -1.557753
2008-07-24 08:09:16 51°20.054 2°46.511 22.1519 0.022552 0.116235 -1.557753
2008-07-24 08:09:23 51°20.075 2°46.491 22.1536 0.022964 0.118315 -1.557753
2008-07-24 08:09:28 51°20.09 2°46.477 22.1422 0.023684 0.121957 -1.557753
2008-07-24 08:09:32 51°20.101 2°46.466 22.1437 0.023273 0.119867 -1.592577
2008-07-24 08:09:37 51°20.116 2°46.452 22.1357 0.023273 0.119867 -1.592577
2008-07-24 08:09:43 51°20.134 2°46.435 22.1541 0.023581 0.121419 -1.557753
2008-07-24 08:09:48 51°20.149 2°46.421 22.1437 0.023479 0.120887 -1.592577
2008-07-24 08:09:52 51°20.161 2°46.41 22.1636 0.022758 0.117241 -1.592577
2008-07-24 08:09:57 51°20.175 2°46.395 22.1506 0.023993 0.123509 -1.557753
2008-07-24 08:10:03 51°20.193 2°46.379 22.1513 0.023787 0.122468 -1.592577
2008-07-24 08:10:08 51°20.208 2°46.365 22.1592 0.023787 0.122468 -1.592577
2008-07-24 08:10:13 51°20.223 2°46.351 22.1495 0.023684 0.121966 -1.557753
2008-07-24 08:10:18 51°20.238 2°46.337 22.1566 0.02317 0.119376 -1.557753
2008-07-24 08:10:23 51°20.253 2°46.323 22.1537 0.022964 0.118347 -1.592577
2008-07-24 08:10:28 51°20.268 2°46.309 22.1411 0.023273 0.119933 -1.557753
2008-07-24 08:10:32 51°20.28 2°46.297 22.1638 0.023684 0.12203 -1.592577
2008-07-24 08:10:38 51°20.298 2°46.281 22.1606 0.023684 0.12203 -1.592577
2008-07-24 08:10:43 51°20.313 2°46.267 22.1591 0.023273 0.119935 -1.592577
2008-07-24 08:10:48 51°20.328 2°46.253 22.1665 0.022655 0.116792 -1.592577
2008-07-24 08:10:52 51°20.34 2°46.242 22.1617 0.024405 0.125654 -1.557753
2008-07-24 08:10:56 51°20.352 2°46.231 22.1516 0.02317 0.119387 -1.592577
2008-07-24 08:11:03 51°20.373 2°46.212 22.162 0.023067 0.11886 -1.557753
2008-07-24 08:11:08 51°20.388 2°46.198 22.1583 0.023067 0.11886 -1.557753
2008-07-24 08:11:12 51°20.4 2°46.187 22.1591 0.022141 0.114179 -1.557753
2008-07-24 08:11:16 51°20.413 2°46.175 22.1727 0.022244 0.114699 -1.557753
2008-07-24 08:11:23 51°20.434 2°46.156 22.1642 0.022552 0.116268 -1.557753
2008-07-24 08:11:28 51°20.449 2°46.142 22.1557 0.022861 0.117836 -1.592577
2008-07-24 08:11:32 51°20.461 2°46.131 22.1689 0.022552 0.116292 -1.557753
2008-07-24 08:11:37 51°20.476 2°46.117 22.1678 0.022552 0.116292 -1.557753
2008-07-24 08:11:43 51°20.494 2°46.101 22.1681 0.023684 0.122021 -1.557753
2008-07-24 08:11:48 51°20.509 2°46.087 22.1731 0.022655 0.116793 -1.592577
2008-07-24 08:11:52 51°20.521 2°46.075 22.1808 0.022552 0.116268 -1.557753
2008-07-24 08:11:56 51°20.533 2°46.064 22.1687 0.022964 0.118445 -1.557753
2008-07-24 08:12:03 51°20.554 2°46.044 22.1604 0.022655 0.11691 -1.592577
2008-07-24 08:12:08 51°20.569 2°46.03 22.1729 0.022655 0.11691 -1.592577
2008-07-24 08:12:13 51°20.584 2°46.015 22.1639 0.023067 0.119008 -1.557753
2008-07-24 08:12:17 51°20.596 2°46.004 22.1666 0.022552 0.116403 -1.557753
2008-07-24 08:12:23 51°20.613 2°45.987 22.1723 0.02317 0.11951 -1.592577
2008-07-24 08:12:28 51°20.628 2°45.972 22.1625 0.022758 0.117382 -1.557753
2008-07-24 08:12:32 51°20.64 2°45.961 22.1756 0.023684 0.122065 -1.557753
2008-07-24 08:12:38 51°20.658 2°45.945 22.1625 0.023684 0.122065 -1.557753
2008-07-24 08:12:43 51°20.673 2°45.93 22.1704 0.022861 0.117889 -1.557753
2008-07-24 08:12:48 51°20.688 2°45.917 22.1822 0.022861 0.117887 -1.557753
2008-07-24 08:12:52 51°20.7 2°45.906 22.1774 0.022964 0.118408 -1.592577
2008-07-24 08:12:58 51°20.718 2°45.89 22.1765 0.023684 0.122069 -1.592577
2008-07-24 08:13:03 51°20.733 2°45.877 22.1793 0.023479 0.121023 -1.557753
2008-07-24 08:13:08 51°20.749 2°45.863 22.1738 0.023479 0.121023 -1.557753
2008-07-24 08:13:13 51°20.764 2°45.849 22.1582 0.022655 0.116853 -1.592577
2008-07-24 08:13:16 51°20.773 2°45.841 22.187 0.023273 0.119978 -1.557753
2008-07-24 08:13:23 51°20.794 2°45.822 22.1666 0.023684 0.122069 -1.557753
2008-07-24 08:13:28 51°20.81 2°45.809 22.1764 0.022758 0.11737 -1.557753
2008-07-24 08:13:32 51°20.822 2°45.799 22.1711 0.023376 0.120496 -1.592577
2008-07-24 08:13:36 51°20.834 2°45.789 22.1846 0.023376 0.120496 -1.592577
2008-07-24 08:13:43 51°20.856 2°45.77 22.1695 0.023479 0.121025 -1.557753
2008-07-24 08:13:48 51°20.871 2°45.757 22.187 0.023581 0.121556 -1.557753
2008-07-24 08:13:52 51°20.884 2°45.747 22.1847 0.023067 0.118933 -1.557753
2008-07-24 08:13:56 51°20.896 2°45.737 22.1772 0.022655 0.116844 -1.557753
2008-07-24 08:14:03 51°20.918 2°45.719 22.1857 0.02245 0.115803 -1.557753
2008-07-24 08:14:08 51°20.933 2°45.708 22.1931 0.02245 0.115803 -1.557753
2008-07-24 08:14:12 51°20.946 2°45.697 22.1706 0.024713 0.127317 -1.557753
2008-07-24 08:14:16 51°20.958 2°45.688 22.1846 0.023581 0.121563 -1.557753
2008-07-24 08:14:23 51°20.98 2°45.67 22.1922 0.023581 0.121556 -1.592577
2008-07-24 08:14:28 51°20.996 2°45.659 22.2009 0.022655 0.116859 -1.557753
2008-07-24 08:14:32 51°21.008 2°45.648 22.1823 0.023273 0.120051 -1.592577
2008-07-24 08:14:38 51°21.027 2°45.634 22.1975 0.023273 0.120051 -1.592577
2008-07-24 08:14:43 51°21.042 2°45.621 22.1912 0.022964 0.11852 -1.592577
2008-07-24 08:14:48 51°21.058 2°45.609 22.1982 0.022347 0.115397 -1.557753
2008-07-24 08:14:52 51°21.07 2°45.598 22.1869 0.022758 0.117494 -1.557753
2008-07-24 08:14:58 51°21.088 2°45.584 22.2018 0.022038 0.113847 -1.592577
2008-07-24 08:15:03 51°21.104 2°45.571 22.2019 0.024096 0.124277 -1.557753
2008-07-24 08:15:08 51°21.119 2°45.558 22.1797 0.024096 0.124277 -1.557753
2008-07-24 08:15:12 51°21.131 2°45.547 22.1967 0.022964 0.118488 -1.592577
2008-07-24 08:15:18 51°21.149 2°45.531 22.2132 0.023273 0.120033 -1.592577
2008-07-24 08:15:23 51°21.164 2°45.517 22.2101 0.023787 0.12264 -1.557753
2008-07-24 08:15:28 51°21.179 2°45.504 22.1965 0.02245 0.115858 -1.557753
2008-07-24 08:15:32 51°21.191 2°45.493 22.1977 0.022758 0.117421 -1.592577
2008-07-24 08:15:36 51°21.203 2°45.482 22.188 0.022758 0.117421 -1.592577
2008-07-24 08:15:43 51°21.223 2°45.463 22.205 0.022964 0.118472 -1.557753
2008-07-24 08:15:48 51°21.239 2°45.449 22.2105 0.022552 0.116389 -1.557753
2008-07-24 08:15:53 51°21.253 2°45.435 22.2086 0.025125 0.12947 -1.592577
2008-07-24 08:15:57 51°21.265 2°45.424 22.1969 0.023787 0.122664 -1.592577
2008-07-24 08:16:03 51°21.282 2°45.406 22.1941 0.023684 0.122138 -1.557753
2008-07-24 08:16:08 51°21.297 2°45.392 22.215 0.023684 0.122138 -1.557753
2008-07-24 08:16:13 51°21.312 2°45.378 22.1913 0.023067 0.118995 -1.557753
2008-07-24 08:16:16 51°21.32 2°45.369 22.1992 0.022244 0.114827 -1.557753
2008-07-24 08:16:23 51°21.341 2°45.35 22.2054 0.022758 0.117431 -1.592577
2008-07-24 08:16:28 51°21.356 2°45.336 22.212 0.02245 0.115871 -1.592577
2008-07-24 08:16:32 51°21.367 2°45.324 22.1955 0.023067 0.119004 -1.592577
2008-07-24 08:16:36 51°21.379 2°45.314 22.2091 0.023067 0.119004 -1.592577
2008-07-24 08:16:43 51°21.4 2°45.294 22.2179 0.023067 0.119011 -1.592577
2008-07-24 08:16:48 51°21.415 2°45.282 22.2195 0.023479 0.121106 -1.592577
2008-07-24 08:16:52 51°21.428 2°45.27 22.2113 0.022861 0.117982 -1.592577
2008-07-24 08:16:58 51°21.446 2°45.254 22.2243 0.02245 0.115889 -1.557753
2008-07-24 08:17:03 51°21.46 2°45.24 22.2189 0.022655 0.116929 -1.592577
2008-07-24 08:17:08 51°21.475 2°45.226 22.2144 0.022655 0.116929 -1.592577
2008-07-24 08:17:12 51°21.487 2°45.215 22.2099 0.022347 0.11537 -1.592577
2008-07-24 08:17:18 51°21.505 2°45.198 22.221 0.023479 0.121124 -1.557753
2008-07-24 08:17:23 51°21.52 2°45.183 22.2065 0.02389 0.123213 -1.557753
2008-07-24 08:17:28 51°21.535 2°45.17 22.2237 0.022552 0.116427 -1.592577
2008-07-24 08:17:32 51°21.547 2°45.159 22.2225 0.023067 0.119034 -1.557753
2008-07-24 08:17:37 51°21.562 2°45.145 22.217 0.023067 0.119034 -1.557753
2008-07-24 08:17:43 51°21.58 2°45.129 22.2142 0.023993 0.123728 -1.592577
2008-07-24 08:17:48 51°21.596 2°45.116 22.2343 0.02461 0.126854 -1.592577
2008-07-24 08:17:52 51°21.608 2°45.105 22.2218 0.023273 0.120049 -1.557753
2008-07-24 08:17:56 51°21.62 2°45.094 22.2346 0.023273 0.120048 -1.592577
2008-07-24 08:18:03 51°21.641 2°45.075 22.2309 0.024096 0.124236 -1.592577
2008-07-24 08:18:08 51°21.656 2°45.061 22.2227 0.024096 0.124236 -1.592577
2008-07-24 08:18:12 51°21.668 2°45.05 22.2166 0.024816 0.127912 -1.557753
2008-07-24 08:18:17 51°21.683 2°45.036 22.2337 0.025022 0.128956 -1.592577
2008-07-24 08:18:23 51°21.701 2°45.019 22.2381 0.023581 0.121629 -1.557753
2008-07-24 08:18:28 51°21.716 2°45.005 22.2303 0.02317 0.119542 -1.592577
2008-07-24 08:18:33 51°21.731 2°44.991 22.2196 0.024096 0.124281 -1.557753
2008-07-24 08:18:37 51°21.743 2°44.98 22.2163 0.024096 0.124281 -1.557753
2008-07-24 08:18:43 51°21.761 2°44.963 22.2343 0.022964 0.118548 -1.592577
2008-07-24 08:18:48 51°21.776 2°44.949 22.2403 0.023376 0.120618 -1.557753
2008-07-24 08:18:53 51°21.791 2°44.935 22.2344 0.023273 0.120084 -1.557753
2008-07-24 08:18:57 51°21.803 2°44.924 22.2218 0.023067 0.11904 -1.592577
2008-07-24 08:19:03 51°21.821 2°44.907 22.2348 0.02245 0.115909 -1.592577
2008-07-24 08:19:08 51°21.836 2°44.893 22.2375 0.02245 0.115909 -1.592577
2008-07-24 08:19:12 51°21.848 2°44.882 22.2307 0.022861 0.117998 -1.592577
2008-07-24 08:19:17 51°21.863 2°44.869 22.2215 0.022347 0.115397 -1.557753
2008-07-24 08:19:23 51°21.881 2°44.852 22.2231 0.022861 0.118021 -1.557753
2008-07-24 08:19:28 51°21.896 2°44.838 22.2317 0.023376 0.12066 -1.557753
2008-07-24 08:19:32 51°21.909 2°44.827 22.2391 0.022552 0.116484 -1.592577
2008-07-24 08:19:38 51°21.927 2°44.811 22.2408 0.022552 0.116484 -1.592577
2008-07-24 08:19:43 51°21.942 2°44.797 22.2469 0.022964 0.118566 -1.557753
2008-07-24 08:19:48 51°21.957 2°44.784 22.2468 0.022141 0.114394 -1.557753
2008-07-24 08:19:53 51°21.972 2°44.77 22.2346 0.022347 0.115448 -1.557753
2008-07-24 08:19:57 51°21.984 2°44.759 22.237 0.022038 0.113892 -1.592577
2008-07-24 08:20:03 51°22.002 2°44.742 22.2433 0.022347 0.115466 -1.557753
2008-07-24 08:20:08 51°22.017 2°44.729 22.2487 0.022347 0.115466 -1.557753
2008-07-24 08:20:13 51°22.033 2°44.716 22.241 0.022861 0.118081 -1.592577
2008-07-24 08:20:17 51°22.045 2°44.705 22.2446 0.022038 0.113909 -1.557753
2008-07-24 08:20:23 51°22.063 2°44.689 22.2414 0.022038 0.113907 -1.557753
2008-07-24 08:20:28 51°22.078 2°44.676 22.2463 0.02389 0.123313 -1.592577
2008-07-24 08:20:33 51°22.093 2°44.662 22.2505 0.023479 0.121228 -1.557753
2008-07-24 08:20:37 51°22.105 2°44.651 22.2565 0.023479 0.121228 -1.557753
2008-07-24 08:20:43 51°22.123 2°44.635 22.2524 0.023581 0.121738 -1.557753
2008-07-24 08:20:48 51°22.138 2°44.622 22.2495 0.024199 0.124878 -1.592577
2008-07-24 08:20:53 51°22.153 2°44.608 22.2401 0.023376 0.120687 -1.557753
2008-07-24 08:20:57 51°22.165 2°44.597 22.2541 0.022964 0.118594 -1.557753
2008-07-24 08:21:03 51°22.183 2°44.58 22.2429 0.022861 0.118067 -1.592577
2008-07-24 08:21:08 51°22.198 2°44.567 22.2688 0.022861 0.118067 -1.592577
2008-07-24 08:21:13 51°22.213 2°44.553 22.2366 0.024508 0.126438 -1.592577
2008-07-24 08:21:18 51°22.228 2°44.539 22.2344 0.022655 0.117023 -1.592577
2008-07-24 08:21:23 51°22.243 2°44.525 22.2556 0.024199 0.124857 -1.557753
2008-07-24 08:21:28 51°22.258 2°44.512 22.2596 0.023376 0.120676 -1.592577
2008-07-24 08:21:32 51°22.27 2°44.501 22.2625 0.023684 0.12232 -1.557753
2008-07-24 08:21:38 51°22.288 2°44.485 22.2616 0.023684 0.12232 -1.557753
2008-07-24 08:21:43 51°22.303 2°44.471 22.2451 0.022552 0.116616 -1.592577
2008-07-24 08:21:48 51°22.318 2°44.457 22.2518 0.022141 0.114537 -1.592577
2008-07-24 08:21:53 51°22.333 2°44.443 22.2609 0.022141 0.114535 -1.592577
2008-07-24 08:21:58 51°22.348 2°44.429 22.2612 0.023067 0.119222 -1.592577
2008-07-24 08:22:03 51°22.363 2°44.415 22.2534 0.022244 0.115016 -1.592577
2008-07-24 08:22:08 51°22.377 2°44.401 22.2607 0.022244 0.115016 -1.592577
2008-07-24 08:22:13 51°22.392 2°44.387 22.2635 0.022347 0.115527 -1.592577
2008-07-24 08:22:17 51°22.404 2°44.376 22.2619 0.023787 0.122851 -1.557753
2008-07-24 08:22:23 51°22.422 2°44.36 22.2664 0.022347 0.115541 -1.592577
2008-07-24 08:22:28 51°22.437 2°44.346 22.2599 0.022552 0.116588 -1.557753
2008-07-24 08:22:32 51°22.449 2°44.335 22.2682 0.022552 0.116585 -1.557753
2008-07-24 08:22:37 51°22.464 2°44.322 22.2711 0.022552 0.116585 -1.557753
2008-07-24 08:22:43 51°22.482 2°44.305 22.2556 0.022141 0.114496 -1.592577
2008-07-24 08:22:48 51°22.497 2°44.292 22.2701 0.022552 0.116597 -1.592577
2008-07-24 08:22:53 51°22.512 2°44.277 22.2629 0.023273 0.120256 -1.592577
2008-07-24 08:22:57 51°22.524 2°44.267 22.2721 0.022141 0.114513 -1.557753
2008-07-24 08:23:03 51°22.541 2°44.249 22.2621 0.022347 0.11556 -1.592577
2008-07-24 08:23:08 51°22.556 2°44.235 22.2588 0.022347 0.11556 -1.592577
2008-07-24 08:23:12 51°22.568 2°44.224 22.2673 0.02389 0.123408 -1.592577
2008-07-24 08:23:17 51°22.583 2°44.21 22.268 0.023273 0.120264 -1.592577
2008-07-24 08:23:23 51°22.6 2°44.193 22.285 0.023273 0.120262 -1.557753
2008-07-24 08:23:28 51°22.615 2°44.179 22.2798 0.023067 0.119207 -1.592577
2008-07-24 08:23:33 51°22.63 2°44.166 22.273 0.022655 0.11711 -1.557753
2008-07-24 08:23:38 51°22.644 2°44.152 22.2773 0.022655 0.11711 -1.557753
2008-07-24 08:23:43 51°22.66 2°44.138 22.256 0.02245 0.116065 -1.592577
2008-07-24 08:23:48 51°22.674 2°44.124 22.2789 0.022964 0.118685 -1.592577
2008-07-24 08:23:52 51°22.686 2°44.112 22.2815 0.024302 0.125491 -1.592577
2008-07-24 08:23:58 51°22.704 2°44.096 22.2904 0.022655 0.117114 -1.592577
2008-07-24 08:24:03 51°22.719 2°44.081 22.2672 0.023273 0.120255 -1.592577
2008-07-24 08:24:08 51°22.734 2°44.067 22.2832 0.023273 0.120255 -1.592577
2008-07-24 08:24:12 51°22.746 2°44.056 22.266 0.023993 0.123915 -1.557753
2008-07-24 08:24:17 51°22.761 2°44.043 22.2883 0.022141 0.114518 -1.557753
2008-07-24 08:24:23 51°22.779 2°44.026 22.2799 0.02317 0.11975 -1.592577
2008-07-24 08:24:28 51°22.794 2°44.013 22.2914 0.024096 0.124452 -1.592577
2008-07-24 08:24:32 51°22.806 2°44.003 22.2748 0.023787 0.12288 -1.557753
2008-07-24 08:24:37 51°22.821 2°43.989 22.2838 0.023787 0.12288 -1.557753
2008-07-24 08:24:43 51°22.839 2°43.973 22.2792 0.024713 0.127594 -1.592577
2008-07-24 08:24:48 51°22.854 2°43.96 22.2864 0.023479 0.121303 -1.557753
2008-07-24 08:24:53 51°22.869 2°43.946 22.2635 0.024919 0.12865 -1.557753
2008-07-24 08:24:57 51°22.881 2°43.936 22.2784 0.024713 0.127587 -1.592577
2008-07-24 08:25:03 51°22.899 2°43.92 22.2687 0.023479 0.121284 -1.592577
2008-07-24 08:25:08 51°22.915 2°43.907 22.2889 0.023479 0.121284 -1.592577
2008-07-24 08:25:13 51°22.93 2°43.894 22.278 0.024302 0.125477 -1.557753
2008-07-24 08:25:17 51°22.942 2°43.884 22.291 0.023684 0.122346 -1.592577
2008-07-24 08:25:23 51°22.96 2°43.869 22.2905 0.023684 0.122364 -1.557753
2008-07-24 08:25:28 51°22.976 2°43.856 22.299 0.023376 0.12081 -1.557753
2008-07-24 08:25:33 51°22.991 2°43.843 22.2949 0.022861 0.118215 -1.557753
2008-07-24 08:25:38 51°23.006 2°43.83 22.2901 0.022861 0.118215 -1.557753
2008-07-24 08:25:43 51°23.021 2°43.816 22.2992 0.023684 0.122405 -1.592577
2008-07-24 08:25:48 51°23.036 2°43.803 22.2933 0.022964 0.118734 -1.557753
2008-07-24 08:25:53 51°23.051 2°43.788 22.276 0.02389 0.123438 -1.592577
2008-07-24 08:25:58 51°23.066 2°43.774 22.2883 0.023067 0.119245 -1.557753
2008-07-24 08:26:03 51°23.081 2°43.76 22.2998 0.023684 0.122379 -1.557753
2008-07-24 08:26:08 51°23.096 2°43.747 22.3073 0.023684 0.122379 -1.557753
2008-07-24 08:26:12 51°23.108 2°43.736 22.2989 0.024302 0.125529 -1.592577
2008-07-24 08:26:17 51°23.123 2°43.722 22.2907 0.024508 0.126597 -1.557753
2008-07-24 08:26:23 51°23.14 2°43.706 22.2937 0.023376 0.120836 -1.557753
2008-07-24 08:26:28 51°23.155 2°43.691 22.2951 0.023993 0.123975 -1.557753
2008-07-24 08:26:32 51°23.167 2°43.68 22.3007 0.024302 0.125546 -1.557753
2008-07-24 08:26:37 51°23.182 2°43.666 22.2774 0.024302 0.125546 -1.557753
2008-07-24 08:26:43 51°23.2 2°43.648 22.2889 0.023067 0.119272 -1.557753
2008-07-24 08:26:48 51°23.215 2°43.634 22.3047 0.024611 0.127152 -1.557753
2008-07-24 08:26:52 51°23.227 2°43.623 22.3026 0.025434 0.131394 -1.592577
2008-07-24 08:26:57 51°23.242 2°43.61 22.2999 0.02389 0.12351 -1.557753
2008-07-24 08:27:03 51°23.26 2°43.593 22.3019 0.023479 0.121438 -1.592577
2008-07-24 08:27:08 51°23.275 2°43.579 22.2825 0.023479 0.121438 -1.592577
2008-07-24 08:27:12 51°23.287 2°43.568 22.3041 0.023273 0.120394 -1.557753
2008-07-24 08:27:17 51°23.302 2°43.554 22.2946 0.024096 0.124587 -1.592577
2008-07-24 08:27:23 51°23.321 2°43.538 22.3093 0.023993 0.124053 -1.557753
2008-07-24 08:27:28 51°23.336 2°43.524 22.3066 0.023376 0.120898 -1.557753
2008-07-24 08:27:33 51°23.351 2°43.51 22.3012 0.024096 0.124559 -1.557753
2008-07-24 08:27:37 51°23.363 2°43.498 22.3194 0.024096 0.124559 -1.557753
2008-07-24 08:27:43 51°23.381 2°43.481 22.308 0.024816 0.128232 -1.557753
2008-07-24 08:27:48 51°23.396 2°43.467 22.3119 0.024096 0.124559 -1.592577
2008-07-24 08:27:53 51°23.411 2°43.453 22.3128 0.02389 0.123508 -1.592577
2008-07-24 08:27:57 51°23.423 2°43.442 22.2978 0.024302 0.125603 -1.557753
2008-07-24 08:28:03 51°23.441 2°43.425 22.3197 0.022758 0.11774 -1.557753
2008-07-24 08:28:08 51°23.456 2°43.41 22.3066 0.022758 0.11774 -1.557753
2008-07-24 08:28:12 51°23.468 2°43.399 22.2968 0.02245 0.116174 -1.592577
2008-07-24 08:28:18 51°23.486 2°43.382 22.2986 0.022347 0.115655 -1.557753
2008-07-24 08:28:23 51°23.501 2°43.369 22.3041 0.023273 0.120372 -1.592577
2008-07-24 08:28:28 51°23.516 2°43.355 22.312 0.023581 0.121947 -1.592577
2008-07-24 08:28:32 51°23.528 2°43.345 22.3199 0.023273 0.120383 -1.557753
2008-07-24 08:28:38 51°23.546 2°43.328 22.3163 0.023273 0.120383 -1.557753
2008-07-24 08:28:43 51°23.561 2°43.315 22.3242 0.02389 0.123531 -1.592577
2008-07-24 08:28:48 51°23.577 2°43.301 22.3239 0.024302 0.125631 -1.557753
2008-07-24 08:28:52 51°23.589 2°43.291 22.3151 0.024405 0.126168 -1.592577
2008-07-24 08:28:57 51°23.604 2°43.277 22.3186 0.023993 0.124065 -1.592577
2008-07-24 08:29:03 51°23.622 2°43.26 22.3206 0.023273 0.120381 -1.592577
2008-07-24 08:29:08 51°23.637 2°43.247 22.329 0.023273 0.120381 -1.592577
2008-07-24 08:29:13 51°23.652 2°43.233 22.301 0.024713 0.127716 -1.557753
2008-07-24 08:29:17 51°23.664 2°43.223 22.323 0.024302 0.12561 -1.592577
2008-07-24 08:29:23 51°23.682 2°43.207 22.3254 0.023581 0.121951 -1.557753
2008-07-24 08:29:28 51°23.697 2°43.194 22.3141 0.024713 0.127722 -1.557753
2008-07-24 08:29:32 51°23.709 2°43.183 22.327 0.023581 0.121956 -1.557753
2008-07-24 08:29:38 51°23.727 2°43.167 22.3194 0.023581 0.121956 -1.557753
2008-07-24 08:29:43 51°23.743 2°43.154 22.3345 0.024508 0.126697 -1.592577
2008-07-24 08:29:48 51°23.757 2°43.14 22.3231 0.023479 0.121462 -1.592577
2008-07-24 08:29:53 51°23.772 2°43.126 22.3274 0.023273 0.120414 -1.592577
2008-07-24 08:29:57 51°23.784 2°43.115 22.3358 0.024713 0.12778 -1.592577
2008-07-24 08:30:03 51°23.802 2°43.098 22.3191 0.023787 0.12304 -1.592577
2008-07-24 08:30:08 51°23.817 2°43.083 22.3166 0.023787 0.12304 -1.592577
2008-07-24 08:30:13 51°23.832 2°43.069 22.3425 0.023993 0.124083 -1.557753
2008-07-24 08:30:17 51°23.844 2°43.058 22.3339 0.023273 0.120408 -1.557753
2008-07-24 08:30:23 51°23.861 2°43.041 22.3402 0.024816 0.128279 -1.557753
2008-07-24 08:30:28 51°23.876 2°43.028 22.3432 0.023684 0.122501 -1.557753
2008-07-24 08:30:33 51°23.891 2°43.013 22.3299 0.024816 0.128273 -1.592577